Wetterdaten: Mittwoch, 27.04.2022
Datum Zeit Temp. Aussen Temp. o. S. Temp +5cm Feuchte Auss Luftdruck Regen Sonnenschein Regendauer Solar Windben Empfang
27.04.2022 00:00 9,1 C 8,3 C 5,0 C 78 % 1022,3 hPa 0,0 l/m 0 min 0 min 0 W/m 16,1 km/h (3 Bft) 97,87 %
27.04.2022 00:02 9,1 C 8,3 C 5,0 C 78 % 1022,3 hPa 0,0 l/m 0 min 0 min 0 W/m 3,2 km/h (1 Bft) 14,29 %
27.04.2022 00:04 9,1 C 8,3 C 5,0 C 78 % 1022,4 hPa 0,0 l/m 0 min 0 min 0 W/m 9,7 km/h (2 Bft) 78,05 %
27.04.2022 00:08 9,0 C 8,3 C 5,0 C 78 % 1022,4 hPa 0,0 l/m 0 min 0 min 0 W/m 12,9 km/h (3 Bft) 97,87 %
27.04.2022 00:10 8,9 C 7,8 C 5,0 C 78 % 1022,4 hPa 0,0 l/m 0 min 0 min 0 W/m 12,9 km/h (3 Bft) 97,87 %
27.04.2022 00:12 8,9 C 7,8 C 5,0 C 78 % 1022,4 hPa 0,0 l/m 0 min 0 min 0 W/m 12,9 km/h (3 Bft) 91,49 %
27.04.2022 00:14 8,9 C 7,8 C 4,4 C 78 % 1022,5 hPa 0,0 l/m 0 min 0 min 0 W/m 6,4 km/h (2 Bft) 97,83 %
27.04.2022 00:16 8,9 C 7,8 C 4,4 C 78 % 1022,5 hPa 0,0 l/m 0 min 0 min 0 W/m 12,9 km/h (3 Bft) 97,87 %
27.04.2022 00:18 8,8 C 7,8 C 4,4 C 79 % 1022,5 hPa 0,0 l/m 0 min 0 min 0 W/m 6,4 km/h (2 Bft) 97,87 %
27.04.2022 00:20 8,8 C 7,8 C 4,4 C 78 % 1022,5 hPa 0,0 l/m 0 min 0 min 0 W/m 12,9 km/h (3 Bft) 97,87 %
27.04.2022 00:22 8,8 C 7,8 C 4,4 C 79 % 1022,5 hPa 0,0 l/m 0 min 0 min 0 W/m 6,4 km/h (2 Bft) 97,87 %
27.04.2022 00:24 8,8 C 7,8 C 4,4 C 79 % 1022,6 hPa 0,0 l/m 0 min 0 min 0 W/m 6,4 km/h (2 Bft) 97,87 %
27.04.2022 00:26 8,8 C 7,8 C 4,4 C 79 % 1022,6 hPa 0,0 l/m 0 min 0 min 0 W/m 9,7 km/h (2 Bft) 97,83 %
27.04.2022 00:28 8,7 C 7,8 C 4,4 C 79 % 1022,6 hPa 0,0 l/m 0 min 0 min 0 W/m 9,7 km/h (2 Bft) 97,87 %
27.04.2022 00:30 8,7 C 7,8 C 4,4 C 79 % 1022,6 hPa 0,0 l/m 0 min 0 min 0 W/m 3,2 km/h (1 Bft) 97,87 %
27.04.2022 00:32 8,7 C 7,8 C 4,4 C 79 % 1022,6 hPa 0,0 l/m 0 min 0 min 0 W/m 9,7 km/h (2 Bft) 95,74 %
27.04.2022 00:34 8,6 C 7,8 C 4,4 C 79 % 1022,6 hPa 0,0 l/m 0 min 0 min 0 W/m 9,7 km/h (2 Bft) 97,87 %
27.04.2022 00:36 8,6 C 7,8 C 4,4 C 79 % 1022,7 hPa 0,0 l/m 0 min 0 min 0 W/m 6,4 km/h (2 Bft) 97,87 %
27.04.2022 00:38 8,6 C 7,8 C 4,4 C 79 % 1022,7 hPa 0,0 l/m 0 min 0 min 0 W/m 6,4 km/h (2 Bft) 95,65 %
27.04.2022 00:40 8,6 C 7,8 C 4,4 C 79 % 1022,7 hPa 0,0 l/m 0 min 0 min 0 W/m 9,7 km/h (2 Bft) 100,00 %
27.04.2022 00:42 8,6 C 7,8 C 4,4 C 79 % 1022,7 hPa 0,0 l/m 0 min 0 min 0 W/m 6,4 km/h (2 Bft) 100,00 %
27.04.2022 00:44 8,5 C 7,8 C 4,4 C 79 % 1022,7 hPa 0,0 l/m 0 min 0 min 0 W/m 6,4 km/h (2 Bft) 100,00 %
27.04.2022 00:46 8,4 C 7,2 C 4,4 C 79 % 1022,7 hPa 0,0 l/m 0 min 0 min 0 W/m 9,7 km/h (2 Bft) 100,00 %
27.04.2022 00:48 8,4 C 7,8 C 4,4 C 80 % 1022,7 hPa 0,0 l/m 0 min 0 min 0 W/m 6,4 km/h (2 Bft) 100,00 %
27.04.2022 00:50 8,4 C 7,2 C 4,4 C 80 % 1022,8 hPa 0,0 l/m 0 min 0 min 0 W/m 16,1 km/h (3 Bft) 100,00 %
27.04.2022 00:52 8,4 C 7,2 C 4,4 C 80 % 1022,8 hPa 0,0 l/m 0 min 0 min 0 W/m 6,4 km/h (2 Bft) 100,00 %
27.04.2022 00:54 8,3 C 7,2 C 4,4 C 80 % 1022,7 hPa 0,0 l/m 0 min 0 min 0 W/m 6,4 km/h (2 Bft) 100,00 %
27.04.2022 00:56 8,3 C 7,2 C 4,4 C 80 % 1022,8 hPa 0,0 l/m 0 min 0 min 0 W/m 6,4 km/h (2 Bft) 100,00 %
27.04.2022 00:58 8,3 C 7,2 C 3,9 C 80 % 1022,9 hPa 0,0 l/m 0 min 0 min 0 W/m 12,9 km/h (3 Bft) 100,00 %
27.04.2022 01:00 8,3 C 7,2 C 3,9 C 80 % 1022,9 hPa 0,0 l/m 0 min 0 min 0 W/m 6,4 km/h (2 Bft) 100,00 %
27.04.2022 01:02 8,3 C 7,2 C 3,9 C 80 % 1023,0 hPa 0,0 l/m 0 min 0 min 0 W/m 3,2 km/h (1 Bft) 97,83 %
27.04.2022 01:04 8,2 C 7,2 C 3,9 C 80 % 1023,0 hPa 0,0 l/m 0 min 0 min 0 W/m 6,4 km/h (2 Bft) 100,00 %
27.04.2022 01:06 8,2 C 7,2 C 3,9 C 80 % 1023,0 hPa 0,0 l/m 0 min 0 min 0 W/m 3,2 km/h (1 Bft) 95,74 %
27.04.2022 01:08 8,2 C 7,2 C 3,9 C 80 % 1023,0 hPa 0,0 l/m 0 min 0 min 0 W/m 3,2 km/h (1 Bft) 100,00 %
27.04.2022 01:10 8,2 C 7,2 C 3,9 C 81 % 1023,0 hPa 0,0 l/m 0 min 0 min 0 W/m 3,2 km/h (1 Bft) 100,00 %
27.04.2022 01:12 8,1 C 7,2 C 3,9 C 81 % 1023,0 hPa 0,0 l/m 0 min 0 min 0 W/m 6,4 km/h (2 Bft) 97,83 %
27.04.2022 01:14 8,1 C 7,2 C 3,9 C 81 % 1023,0 hPa 0,0 l/m 0 min 0 min 0 W/m 6,4 km/h (2 Bft) 100,00 %
27.04.2022 01:16 8,1 C 7,2 C 3,9 C 81 % 1023,0 hPa 0,0 l/m 0 min 0 min 0 W/m 6,4 km/h (2 Bft) 100,00 %
27.04.2022 01:18 8,1 C 7,2 C 3,9 C 81 % 1023,1 hPa 0,0 l/m 0 min 0 min 0 W/m 6,4 km/h (2 Bft) 100,00 %
27.04.2022 01:20 8,1 C 7,2 C 3,9 C 81 % 1023,1 hPa 0,0 l/m 0 min 0 min 0 W/m 3,2 km/h (1 Bft) 100,00 %
27.04.2022 01:22 8,0 C 6,7 C 3,9 C 81 % 1023,1 hPa 0,0 l/m 0 min 0 min 0 W/m 3,2 km/h (1 Bft) 95,74 %
27.04.2022 01:24 8,0 C 6,7 C 3,9 C 81 % 1023,1 hPa 0,0 l/m 0 min 0 min 0 W/m 3,2 km/h (1 Bft) 100,00 %
27.04.2022 01:26 7,9 C 6,7 C 3,3 C 81 % 1023,1 hPa 0,0 l/m 0 min 0 min 0 W/m 6,4 km/h (2 Bft) 97,87 %
27.04.2022 01:28 7,9 C 6,7 C 3,3 C 81 % 1023,1 hPa 0,0 l/m 0 min 0 min 0 W/m 9,7 km/h (2 Bft) 97,87 %
27.04.2022 01:30 7,9 C 6,7 C 3,3 C 81 % 1023,0 hPa 0,0 l/m 0 min 0 min 0 W/m 6,4 km/h (2 Bft) 97,87 %
27.04.2022 01:32 7,9 C 6,7 C 3,3 C 81 % 1023,0 hPa 0,0 l/m 0 min 0 min 0 W/m 6,4 km/h (2 Bft) 95,74 %
27.04.2022 01:34 7,8 C 6,7 C 3,3 C 81 % 1023,1 hPa 0,0 l/m 0 min 0 min 0 W/m 9,7 km/h (2 Bft) 97,87 %
27.04.2022 01:36 7,8 C 6,7 C 3,3 C 82 % 1023,1 hPa 0,0 l/m 0 min 0 min 0 W/m 6,4 km/h (2 Bft) 95,65 %
27.04.2022 01:38 7,8 C 6,7 C 3,3 C 82 % 1023,1 hPa 0,0 l/m 0 min 0 min 0 W/m 6,4 km/h (2 Bft) 97,87 %
27.04.2022 01:40 7,7 C 6,7 C 3,3 C 82 % 1023,1 hPa 0,0 l/m 0 min 0 min 0 W/m 9,7 km/h (2 Bft) 97,87 %
27.04.2022 01:42 7,7 C 6,7 C 3,3 C 82 % 1023,2 hPa 0,0 l/m 0 min 0 min 0 W/m 9,7 km/h (2 Bft) 97,87 %
27.04.2022 01:44 7,7 C 6,7 C 3,9 C 82 % 1023,1 hPa 0,0 l/m 0 min 0 min 0 W/m 6,4 km/h (2 Bft) 97,87 %
27.04.2022 01:46 7,7 C 6,7 C 3,3 C 82 % 1023,2 hPa 0,0 l/m 0 min 0 min 0 W/m 6,4 km/h (2 Bft) 97,87 %
27.04.2022 01:48 7,7 C 6,7 C 3,3 C 82 % 1023,2 hPa 0,0 l/m 0 min 0 min 0 W/m 9,7 km/h (2 Bft) 97,83 %
27.04.2022 01:50 7,7 C 6,7 C 3,3 C 82 % 1023,2 hPa 0,0 l/m 0 min 0 min 0 W/m 6,4 km/h (2 Bft) 97,87 %
27.04.2022 01:52 7,6 C 6,7 C 3,3 C 82 % 1023,2 hPa 0,0 l/m 0 min 0 min 0 W/m 9,7 km/h (2 Bft) 97,87 %
27.04.2022 01:54 7,6 C 6,7 C 3,3 C 82 % 1023,2 hPa 0,0 l/m 0 min 0 min 0 W/m 9,7 km/h (2 Bft) 95,74 %
27.04.2022 01:56 7,6 C 6,7 C 3,3 C 82 % 1023,1 hPa 0,0 l/m 0 min 0 min 0 W/m 3,2 km/h (1 Bft) 95,74 %
27.04.2022 01:58 7,6 C 6,7 C 3,3 C 82 % 1023,1 hPa 0,0 l/m 0 min 0 min 0 W/m 6,4 km/h (2 Bft) 95,74 %
27.04.2022 02:00 7,6 C 6,7 C 3,3 C 82 % 1023,1 hPa 0,0 l/m 0 min 0 min 0 W/m 6,4 km/h (2 Bft) 95,65 %
27.04.2022 02:02 7,5 C 6,7 C 3,3 C 83 % 1023,1 hPa 0,0 l/m 0 min 0 min 0 W/m 6,4 km/h (2 Bft) 95,74 %
27.04.2022 02:04 7,5 C 6,7 C 3,3 C 83 % 1023,1 hPa 0,0 l/m 0 min 0 min 0 W/m 9,7 km/h (2 Bft) 97,87 %
27.04.2022 02:06 7,4 C 6,7 C 3,3 C 82 % 1023,2 hPa 0,0 l/m 0 min 0 min 0 W/m 6,4 km/h (2 Bft) 97,87 %
27.04.2022 02:08 7,4 C 6,7 C 3,3 C 83 % 1023,1 hPa 0,0 l/m 0 min 0 min 0 W/m 6,4 km/h (2 Bft) 97,87 %
27.04.2022 02:10 7,4 C 6,7 C 3,3 C 83 % 1023,1 hPa 0,0 l/m 0 min 0 min 0 W/m 9,7 km/h (2 Bft) 98,08 %
27.04.2022 02:12 7,4 C 6,7 C 3,3 C 83 % 1023,2 hPa 0,0 l/m 0 min 0 min 0 W/m 6,4 km/h (2 Bft) 97,87 %
27.04.2022 02:14 7,4 C 6,7 C 3,3 C 83 % 1023,1 hPa 0,0 l/m 0 min 0 min 0 W/m 6,4 km/h (2 Bft) 97,87 %
27.04.2022 02:16 7,4 C 6,7 C 3,3 C 83 % 1023,2 hPa 0,0 l/m 0 min 0 min 0 W/m 3,2 km/h (1 Bft) 95,74 %
27.04.2022 02:18 7,3 C 6,1 C 3,3 C 83 % 1023,1 hPa 0,0 l/m 0 min 0 min 0 W/m 9,7 km/h (2 Bft) 97,87 %
27.04.2022 02:20 7,3 C 6,1 C 3,3 C 83 % 1023,1 hPa 0,0 l/m 0 min 0 min 0 W/m 6,4 km/h (2 Bft) 51,22 %
27.04.2022 02:22 7,3 C 6,1 C 3,3 C 83 % 1023,1 hPa 0,0 l/m 0 min 0 min 0 W/m 9,7 km/h (2 Bft) 100,00 %
27.04.2022 02:24 7,3 C 6,1 C 3,3 C 83 % 1023,1 hPa 0,0 l/m 0 min 0 min 0 W/m 9,7 km/h (2 Bft) 100,00 %
27.04.2022 02:26 7,3 C 6,1 C 3,3 C 83 % 1023,1 hPa 0,0 l/m 0 min 0 min 0 W/m 9,7 km/h (2 Bft) 100,00 %
27.04.2022 02:28 7,2 C 6,1 C 3,3 C 83 % 1023,1 hPa 0,0 l/m 0 min 0 min 0 W/m 9,7 km/h (2 Bft) 100,00 %
27.04.2022 02:30 7,2 C 6,1 C 3,3 C 83 % 1023,1 hPa 0,0 l/m 0 min 0 min 0 W/m 3,2 km/h (1 Bft) 100,00 %
27.04.2022 02:32 7,2 C 6,1 C 3,3 C 83 % 1023,1 hPa 0,0 l/m 0 min 0 min 0 W/m 12,9 km/h (3 Bft) 100,00 %
27.04.2022 02:34 7,2 C 6,1 C 2,8 C 83 % 1023,1 hPa 0,0 l/m 0 min 0 min 0 W/m 3,2 km/h (1 Bft) 100,00 %
27.04.2022 02:36 7,2 C 6,1 C 2,8 C 83 % 1023,1 hPa 0,0 l/m 0 min 0 min 0 W/m 9,7 km/h (2 Bft) 100,00 %
27.04.2022 02:38 7,1 C 6,1 C 2,8 C 83 % 1023,1 hPa 0,0 l/m 0 min 0 min 0 W/m 3,2 km/h (1 Bft) 98,00 %
27.04.2022 02:40 7,1 C 6,1 C 2,8 C 84 % 1023,1 hPa 0,0 l/m 0 min 0 min 0 W/m 6,4 km/h (2 Bft) 100,00 %
27.04.2022 02:42 7,1 C 6,1 C 2,8 C 84 % 1023,1 hPa 0,0 l/m 0 min 0 min 0 W/m 0,0 km/h (0 Bft) 100,00 %
27.04.2022 02:44 7,1 C 6,1 C 2,8 C 84 % 1023,1 hPa 0,0 l/m 0 min 0 min 0 W/m 3,2 km/h (1 Bft) 100,00 %
27.04.2022 02:46 7,1 C 6,1 C 2,8 C 84 % 1023,1 hPa 0,0 l/m 0 min 0 min 0 W/m 9,7 km/h (2 Bft) 100,00 %
27.04.2022 02:48 7,1 C 6,1 C 2,8 C 84 % 1023,1 hPa 0,0 l/m 0 min 0 min 0 W/m 3,2 km/h (1 Bft) 100,00 %
27.04.2022 02:50 7,0 C 6,1 C 2,8 C 84 % 1023,1 hPa 0,0 l/m 0 min 0 min 0 W/m 6,4 km/h (2 Bft) 100,00 %
27.04.2022 02:52 7,0 C 6,1 C 2,8 C 84 % 1023,1 hPa 0,0 l/m 0 min 0 min 0 W/m 3,2 km/h (1 Bft) 97,87 %
27.04.2022 02:54 6,9 C 6,1 C 2,8 C 84 % 1023,1 hPa 0,0 l/m 0 min 0 min 0 W/m 9,7 km/h (2 Bft) 97,83 %
27.04.2022 02:56 6,9 C 6,1 C 2,8 C 84 % 1023,1 hPa 0,0 l/m 0 min 0 min 0 W/m 6,4 km/h (2 Bft) 97,87 %
27.04.2022 02:58 6,9 C 6,1 C 2,8 C 84 % 1023,1 hPa 0,0 l/m 0 min 0 min 0 W/m 3,2 km/h (1 Bft) 97,87 %
27.04.2022 03:00 6,9 C 6,1 C 2,8 C 84 % 1023,2 hPa 0,0 l/m 0 min 0 min 0 W/m 3,2 km/h (1 Bft) 95,74 %
27.04.2022 03:02 6,9 C 6,1 C 2,8 C 85 % 1023,2 hPa 0,0 l/m 0 min 0 min 0 W/m 3,2 km/h (1 Bft) 95,74 %
27.04.2022 03:04 6,9 C 6,1 C 2,8 C 85 % 1023,1 hPa 0,0 l/m 0 min 0 min 0 W/m 3,2 km/h (1 Bft) 97,87 %
27.04.2022 03:06 6,9 C 6,1 C 2,8 C 85 % 1023,1 hPa 0,0 l/m 0 min 0 min 0 W/m 6,4 km/h (2 Bft) 97,83 %
27.04.2022 03:08 6,8 C 6,1 C 2,8 C 85 % 1023,2 hPa 0,0 l/m 0 min 0 min 0 W/m 3,2 km/h (1 Bft) 95,74 %
27.04.2022 03:10 6,8 C 6,1 C 2,8 C 85 % 1023,2 hPa 0,0 l/m 0 min 0 min 0 W/m 3,2 km/h (1 Bft) 97,87 %
27.04.2022 03:12 6,8 C 6,1 C 2,8 C 85 % 1023,2 hPa 0,0 l/m 0 min 0 min 0 W/m 0,0 km/h (0 Bft) 97,87 %
27.04.2022 03:14 6,8 C 6,1 C 2,8 C 85 % 1023,2 hPa 0,0 l/m 0 min 0 min 0 W/m 3,2 km/h (1 Bft) 97,87 %
27.04.2022 03:16 6,8 C 5,6 C 2,8 C 85 % 1023,2 hPa 0,0 l/m 0 min 0 min 0 W/m 3,2 km/h (1 Bft) 97,87 %
27.04.2022 03:18 6,8 C 5,6 C 2,8 C 85 % 1023,2 hPa 0,0 l/m 0 min 0 min 0 W/m 3,2 km/h (1 Bft) 95,65 %
27.04.2022 03:20 6,8 C 5,6 C 2,8 C 85 % 1023,3 hPa 0,0 l/m 0 min 0 min 0 W/m 0,0 km/h (0 Bft) 95,74 %
27.04.2022 03:22 6,8 C 5,6 C 2,8 C 85 % 1023,3 hPa 0,0 l/m 0 min 0 min 0 W/m 0,0 km/h (0 Bft) 97,87 %
27.04.2022 03:24 6,7 C 5,6 C 2,8 C 85 % 1023,3 hPa 0,0 l/m 0 min 0 min 0 W/m 0,0 km/h (0 Bft) 97,87 %
27.04.2022 03:26 6,7 C 5,6 C 2,8 C 85 % 1023,4 hPa 0,0 l/m 0 min 0 min 0 W/m 0,0 km/h (0 Bft) 97,87 %
27.04.2022 03:28 6,7 C 5,6 C 2,8 C 85 % 1023,4 hPa 0,0 l/m 0 min 0 min 0 W/m 0,0 km/h (0 Bft) 95,74 %
27.04.2022 03:30 6,7 C 5,6 C 2,8 C 85 % 1023,4 hPa 0,0 l/m 0 min 0 min 0 W/m 3,2 km/h (1 Bft) 93,48 %
27.04.2022 03:32 6,7 C 5,6 C 2,8 C 85 % 1023,4 hPa 0,0 l/m 0 min 0 min 0 W/m 3,2 km/h (1 Bft) 93,62 %
27.04.2022 03:34 6,7 C 5,6 C 2,8 C 85 % 1023,5 hPa 0,0 l/m 0 min 0 min 0 W/m 0,0 km/h (0 Bft) 95,74 %
27.04.2022 03:36 6,6 C 5,6 C 2,8 C 85 % 1023,5 hPa 0,0 l/m 0 min 0 min 0 W/m 3,2 km/h (1 Bft) 91,49 %
27.04.2022 03:38 6,6 C 5,6 C 2,8 C 85 % 1023,5 hPa 0,0 l/m 0 min 0 min 0 W/m 3,2 km/h (1 Bft) 93,62 %
27.04.2022 03:40 6,6 C 5,6 C 2,8 C 85 % 1023,5 hPa 0,0 l/m 0 min 0 min 0 W/m 3,2 km/h (1 Bft) 93,48 %
27.04.2022 03:42 6,6 C 5,6 C 2,8 C 85 % 1023,4 hPa 0,0 l/m 0 min 0 min 0 W/m 0,0 km/h (0 Bft) 91,49 %
27.04.2022 03:44 6,5 C 5,6 C 2,8 C 85 % 1023,5 hPa 0,0 l/m 0 min 0 min 0 W/m 3,2 km/h (1 Bft) 93,62 %
27.04.2022 03:46 6,5 C 5,6 C 2,8 C 85 % 1023,5 hPa 0,0 l/m 0 min 0 min 0 W/m 6,4 km/h (2 Bft) 93,62 %
27.04.2022 03:48 6,5 C 5,6 C 2,8 C 86 % 1023,5 hPa 0,0 l/m 0 min 0 min 0 W/m 6,4 km/h (2 Bft) 93,62 %
27.04.2022 03:50 6,5 C 5,6 C 2,8 C 86 % 1023,5 hPa 0,0 l/m 0 min 0 min 0 W/m 3,2 km/h (1 Bft) 93,62 %
27.04.2022 03:52 6,5 C 5,6 C 2,8 C 86 % 1023,5 hPa 0,0 l/m 0 min 0 min 0 W/m 3,2 km/h (1 Bft) 91,30 %
27.04.2022 03:54 6,5 C 5,6 C 2,8 C 86 % 1023,5 hPa 0,0 l/m 0 min 0 min 0 W/m 3,2 km/h (1 Bft) 93,62 %
27.04.2022 03:56 6,5 C 5,6 C 2,8 C 86 % 1023,6 hPa 0,0 l/m 0 min 0 min 0 W/m 3,2 km/h (1 Bft) 95,74 %
27.04.2022 03:58 6,5 C 5,6 C 2,8 C 86 % 1023,6 hPa 0,0 l/m 0 min 0 min 0 W/m 12,9 km/h (3 Bft) 93,62 %
27.04.2022 04:00 6,5 C 5,6 C 2,8 C 86 % 1023,5 hPa 0,0 l/m 0 min 0 min 0 W/m 3,2 km/h (1 Bft) 97,87 %
27.04.2022 04:06 6,5 C 5,6 C 2,8 C 87 % 1023,6 hPa 0,0 l/m 0 min 0 min 0 W/m 6,4 km/h (2 Bft) 100,00 %
27.04.2022 04:08 6,5 C 5,6 C 2,8 C 87 % 1023,6 hPa 0,0 l/m 0 min 0 min 0 W/m 3,2 km/h (1 Bft) 100,00 %
27.04.2022 04:10 6,5 C 5,6 C 2,2 C 87 % 1023,6 hPa 0,0 l/m 0 min 0 min 0 W/m 3,2 km/h (1 Bft) 97,87 %
27.04.2022 04:12 6,4 C 5,6 C 2,2 C 87 % 1023,7 hPa 0,0 l/m 0 min 0 min 0 W/m 3,2 km/h (1 Bft) 100,00 %
27.04.2022 04:14 6,4 C 5,6 C 2,2 C 87 % 1023,6 hPa 0,0 l/m 0 min 0 min 0 W/m 3,2 km/h (1 Bft) 100,00 %
27.04.2022 04:16 6,4 C 5,6 C 2,2 C 87 % 1023,7 hPa 0,0 l/m 0 min 0 min 0 W/m 6,4 km/h (2 Bft) 100,00 %
27.04.2022 04:18 6,4 C 5,6 C 2,2 C 87 % 1023,7 hPa 0,0 l/m 0 min 0 min 0 W/m 3,2 km/h (1 Bft) 100,00 %
27.04.2022 04:20 6,4 C 5,6 C 2,2 C 87 % 1023,7 hPa 0,0 l/m 0 min 0 min 0 W/m 3,2 km/h (1 Bft) 100,00 %
27.04.2022 04:22 6,3 C 5,6 C 2,2 C 87 % 1023,7 hPa 0,0 l/m 0 min 0 min 0 W/m 6,4 km/h (2 Bft) 100,00 %
27.04.2022 04:24 6,3 C 5,6 C 2,2 C 87 % 1023,7 hPa 0,0 l/m 0 min 0 min 0 W/m 6,4 km/h (2 Bft) 97,87 %
27.04.2022 04:26 6,3 C 5,6 C 2,2 C 87 % 1023,7 hPa 0,0 l/m 0 min 0 min 0 W/m 3,2 km/h (1 Bft) 100,00 %
27.04.2022 04:28 6,2 C 5,6 C 2,2 C 87 % 1023,7 hPa 0,0 l/m 0 min 0 min 0 W/m 3,2 km/h (1 Bft) 100,00 %
27.04.2022 04:30 6,2 C 5,6 C 2,2 C 87 % 1023,7 hPa 0,0 l/m 0 min 0 min 0 W/m 6,4 km/h (2 Bft) 97,87 %
27.04.2022 04:32 6,2 C 5,6 C 2,2 C 87 % 1023,7 hPa 0,0 l/m 0 min 0 min 0 W/m 3,2 km/h (1 Bft) 100,00 %
27.04.2022 04:34 6,2 C 5,6 C 2,2 C 87 % 1023,8 hPa 0,0 l/m 0 min 0 min 0 W/m 9,7 km/h (2 Bft) 100,00 %
27.04.2022 04:36 6,2 C 5,6 C 2,2 C 87 % 1023,8 hPa 0,0 l/m 0 min 0 min 0 W/m 6,4 km/h (2 Bft) 53,49 %
27.04.2022 04:38 6,1 C 5,6 C 2,2 C 87 % 1023,7 hPa 0,0 l/m 0 min 0 min 0 W/m 3,2 km/h (1 Bft) 100,00 %
27.04.2022 04:40 6,1 C 5,0 C 2,2 C 87 % 1023,7 hPa 0,0 l/m 0 min 0 min 0 W/m 3,2 km/h (1 Bft) 100,00 %
27.04.2022 04:42 6,1 C 5,0 C 2,2 C 87 % 1023,8 hPa 0,0 l/m 0 min 0 min 0 W/m 3,2 km/h (1 Bft) 97,87 %
27.04.2022 04:44 6,1 C 5,0 C 2,2 C 87 % 1023,9 hPa 0,0 l/m 0 min 0 min 0 W/m 3,2 km/h (1 Bft) 100,00 %
27.04.2022 04:46 6,1 C 5,0 C 2,2 C 87 % 1023,8 hPa 0,0 l/m 0 min 0 min 0 W/m 0,0 km/h (0 Bft) 100,00 %
27.04.2022 04:48 6,1 C 5,0 C 2,2 C 87 % 1023,9 hPa 0,0 l/m 0 min 0 min 0 W/m 6,4 km/h (2 Bft) 100,00 %
27.04.2022 04:50 6,1 C 5,0 C 2,2 C 87 % 1023,9 hPa 0,0 l/m 0 min 0 min 0 W/m 3,2 km/h (1 Bft) 100,00 %
27.04.2022 04:52 6,1 C 5,0 C 2,2 C 87 % 1023,9 hPa 0,0 l/m 0 min 0 min 0 W/m 3,2 km/h (1 Bft) 100,00 %
27.04.2022 04:54 6,0 C 5,0 C 2,2 C 87 % 1023,9 hPa 0,0 l/m 0 min 0 min 0 W/m 3,2 km/h (1 Bft) 100,00 %
27.04.2022 04:56 6,0 C 5,0 C 2,2 C 87 % 1023,9 hPa 0,0 l/m 0 min 0 min 0 W/m 3,2 km/h (1 Bft) 100,00 %
27.04.2022 04:58 6,0 C 5,0 C 2,2 C 87 % 1023,9 hPa 0,0 l/m 0 min 0 min 0 W/m 3,2 km/h (1 Bft) 100,00 %
27.04.2022 05:00 5,9 C 5,0 C 2,2 C 87 % 1023,9 hPa 0,0 l/m 0 min 0 min 0 W/m 3,2 km/h (1 Bft) 100,00 %
27.04.2022 05:02 5,9 C 5,0 C 2,2 C 88 % 1023,9 hPa 0,0 l/m 0 min 0 min 0 W/m 3,2 km/h (1 Bft) 97,73 %
27.04.2022 05:04 5,9 C 5,0 C 2,2 C 88 % 1023,9 hPa 0,0 l/m 0 min 0 min 0 W/m 3,2 km/h (1 Bft) 100,00 %
27.04.2022 05:06 5,9 C 5,0 C 2,2 C 88 % 1023,9 hPa 0,0 l/m 0 min 0 min 0 W/m 9,7 km/h (2 Bft) 100,00 %
27.04.2022 05:08 5,9 C 5,0 C 2,2 C 88 % 1023,9 hPa 0,0 l/m 0 min 0 min 0 W/m 3,2 km/h (1 Bft) 97,87 %
27.04.2022 05:10 5,8 C 5,0 C 2,2 C 88 % 1023,9 hPa 0,0 l/m 0 min 0 min 0 W/m 3,2 km/h (1 Bft) 97,87 %
27.04.2022 05:12 5,8 C 5,0 C 2,2 C 88 % 1024,0 hPa 0,0 l/m 0 min 0 min 0 W/m 0,0 km/h (0 Bft) 97,87 %
27.04.2022 05:14 5,8 C 5,0 C 2,2 C 88 % 1024,0 hPa 0,0 l/m 0 min 0 min 0 W/m 3,2 km/h (1 Bft) 97,87 %
27.04.2022 05:16 5,8 C 5,0 C 1,7 C 88 % 1024,0 hPa 0,0 l/m 0 min 0 min 0 W/m 3,2 km/h (1 Bft) 97,87 %
27.04.2022 05:18 5,8 C 5,0 C 2,2 C 88 % 1024,0 hPa 0,0 l/m 0 min 0 min 0 W/m 3,2 km/h (1 Bft) 97,83 %
27.04.2022 05:20 5,8 C 5,0 C 2,2 C 88 % 1024,0 hPa 0,0 l/m 0 min 0 min 0 W/m 3,2 km/h (1 Bft) 97,87 %
27.04.2022 05:22 5,8 C 5,0 C 1,7 C 88 % 1024,0 hPa 0,0 l/m 0 min 0 min 0 W/m 3,2 km/h (1 Bft) 97,87 %
27.04.2022 05:24 5,8 C 5,0 C 1,7 C 88 % 1024,0 hPa 0,0 l/m 0 min 0 min 0 W/m 3,2 km/h (1 Bft) 97,87 %
27.04.2022 05:26 5,8 C 5,0 C 2,2 C 88 % 1023,9 hPa 0,0 l/m 0 min 0 min 0 W/m 3,2 km/h (1 Bft) 97,87 %
27.04.2022 05:28 5,8 C 5,0 C 2,2 C 88 % 1024,0 hPa 0,0 l/m 0 min 0 min 0 W/m 3,2 km/h (1 Bft) 97,83 %
27.04.2022 05:30 5,7 C 5,0 C 2,2 C 88 % 1024,0 hPa 0,0 l/m 0 min 0 min 0 W/m 6,4 km/h (2 Bft) 95,74 %
27.04.2022 05:32 5,7 C 5,0 C 2,2 C 88 % 1024,0 hPa 0,0 l/m 0 min 0 min 0 W/m 3,2 km/h (1 Bft) 97,87 %
27.04.2022 05:34 5,7 C 5,0 C 1,7 C 88 % 1024,0 hPa 0,0 l/m 0 min 0 min 0 W/m 3,2 km/h (1 Bft) 95,74 %
27.04.2022 05:36 5,7 C 5,0 C 1,7 C 88 % 1024,0 hPa 0,0 l/m 0 min 0 min 0 W/m 3,2 km/h (1 Bft) 100,00 %
27.04.2022 05:38 5,7 C 4,4 C 1,7 C 88 % 1024,0 hPa 0,0 l/m 0 min 0 min 0 W/m 3,2 km/h (1 Bft) 95,74 %
27.04.2022 05:40 5,7 C 4,4 C 1,7 C 88 % 1024,0 hPa 0,0 l/m 0 min 0 min 0 W/m 0,0 km/h (0 Bft) 100,00 %
27.04.2022 05:42 5,7 C 4,4 C 1,7 C 88 % 1024,1 hPa 0,0 l/m 0 min 0 min 0 W/m 3,2 km/h (1 Bft) 100,00 %
27.04.2022 05:44 5,7 C 4,4 C 1,7 C 88 % 1024,1 hPa 0,0 l/m 0 min 0 min 0 W/m 0,0 km/h (0 Bft) 97,87 %
27.04.2022 05:46 5,6 C 4,4 C 1,7 C 88 % 1024,1 hPa 0,0 l/m 0 min 0 min 0 W/m 0,0 km/h (0 Bft) 97,87 %
27.04.2022 05:48 5,6 C 4,4 C 1,7 C 88 % 1024,1 hPa 0,0 l/m 0 min 0 min 0 W/m 0,0 km/h (0 Bft) 97,87 %
27.04.2022 05:50 5,6 C 4,4 C 1,7 C 88 % 1024,2 hPa 0,0 l/m 0 min 0 min 0 W/m 3,2 km/h (1 Bft) 97,87 %
27.04.2022 05:52 5,6 C 4,4 C 1,7 C 88 % 1024,1 hPa 0,0 l/m 0 min 0 min 0 W/m 3,2 km/h (1 Bft) 97,83 %
27.04.2022 05:54 5,6 C 4,4 C 1,7 C 88 % 1024,1 hPa 0,0 l/m 0 min 0 min 0 W/m 0,0 km/h (0 Bft) 97,87 %
27.04.2022 05:56 5,6 C 4,4 C 1,7 C 88 % 1024,1 hPa 0,0 l/m 0 min 0 min 0 W/m 0,0 km/h (0 Bft) 97,87 %
27.04.2022 05:58 5,6 C 4,4 C 1,7 C 88 % 1024,1 hPa 0,0 l/m 0 min 0 min 0 W/m 0,0 km/h (0 Bft) 98,00 %
27.04.2022 06:00 5,6 C 4,4 C 1,7 C 89 % 1024,1 hPa 0,0 l/m 0 min 0 min 0 W/m 0,0 km/h (0 Bft) 95,74 %
27.04.2022 06:02 5,5 C 4,4 C 1,7 C 89 % 1024,2 hPa 0,0 l/m 0 min 0 min 0 W/m 0,0 km/h (0 Bft) 95,92 %
27.04.2022 06:04 5,5 C 4,4 C 1,7 C 89 % 1024,3 hPa 0,0 l/m 0 min 0 min 0 W/m 0,0 km/h (0 Bft) 97,87 %
27.04.2022 06:08 5,4 C 4,4 C 1,7 C 89 % 1024,2 hPa 0,0 l/m 0 min 0 min 0 W/m 0,0 km/h (0 Bft) 97,73 %
27.04.2022 06:10 5,4 C 4,4 C 1,7 C 89 % 1024,3 hPa 0,0 l/m 0 min 0 min 0 W/m 0,0 km/h (0 Bft) 97,87 %
27.04.2022 06:12 5,4 C 3,9 C 1,7 C 89 % 1024,3 hPa 0,0 l/m 0 min 0 min 0 W/m 0,0 km/h (0 Bft) 97,87 %
27.04.2022 06:14 5,4 C 3,9 C 1,7 C 89 % 1024,3 hPa 0,0 l/m 0 min 0 min 0 W/m 0,0 km/h (0 Bft) 95,74 %
27.04.2022 06:16 5,4 C 3,9 C 1,7 C 89 % 1024,4 hPa 0,0 l/m 0 min 0 min 0 W/m 0,0 km/h (0 Bft) 100,00 %
27.04.2022 06:18 5,3 C 3,9 C 1,1 C 89 % 1024,4 hPa 0,0 l/m 0 min 0 min 4 W/m 3,2 km/h (1 Bft) 100,00 %
27.04.2022 06:20 5,3 C 3,9 C 1,1 C 89 % 1024,4 hPa 0,0 l/m 0 min 0 min 5 W/m 3,2 km/h (1 Bft) 100,00 %
27.04.2022 06:22 5,3 C 3,9 C 1,1 C 89 % 1024,4 hPa 0,0 l/m 0 min 0 min 5 W/m 3,2 km/h (1 Bft) 100,00 %
27.04.2022 06:24 5,3 C 3,9 C 1,1 C 89 % 1024,4 hPa 0,0 l/m 0 min 0 min 7 W/m 0,0 km/h (0 Bft) 100,00 %
27.04.2022 06:26 5,3 C 3,9 C 1,1 C 89 % 1024,4 hPa 0,0 l/m 0 min 0 min 7 W/m 0,0 km/h (0 Bft) 100,00 %
27.04.2022 06:28 5,2 C 3,9 C 1,1 C 89 % 1024,4 hPa 0,0 l/m 0 min 0 min 9 W/m 0,0 km/h (0 Bft) 95,74 %
27.04.2022 06:30 5,2 C 3,9 C 1,7 C 89 % 1024,5 hPa 0,0 l/m 0 min 0 min 9 W/m 0,0 km/h (0 Bft) 100,00 %
27.04.2022 06:32 5,2 C 3,9 C 1,1 C 89 % 1024,4 hPa 0,0 l/m 0 min 0 min 11 W/m 0,0 km/h (0 Bft) 100,00 %
27.04.2022 06:34 5,2 C 3,9 C 1,1 C 89 % 1024,5 hPa 0,0 l/m 0 min 0 min 11 W/m 0,0 km/h (0 Bft) 97,87 %
27.04.2022 06:36 5,2 C 3,9 C 1,1 C 89 % 1024,6 hPa 0,0 l/m 0 min 0 min 12 W/m 0,0 km/h (0 Bft) 96,15 %
27.04.2022 06:38 5,1 C 3,9 C 1,1 C 89 % 1024,6 hPa 0,0 l/m 0 min 0 min 14 W/m 0,0 km/h (0 Bft) 100,00 %
27.04.2022 06:40 5,1 C 3,9 C 1,1 C 89 % 1024,6 hPa 0,0 l/m 0 min 0 min 16 W/m 0,0 km/h (0 Bft) 100,00 %
27.04.2022 06:42 5,1 C 3,9 C 1,1 C 89 % 1024,7 hPa 0,0 l/m 0 min 0 min 17 W/m 0,0 km/h (0 Bft) 97,87 %
27.04.2022 06:44 5,1 C 3,9 C 1,1 C 89 % 1024,7 hPa 0,0 l/m 0 min 0 min 19 W/m 0,0 km/h (0 Bft) 95,74 %
27.04.2022 06:46 5,1 C 3,9 C 1,1 C 89 % 1024,7 hPa 0,0 l/m 0 min 0 min 20 W/m 0,0 km/h (0 Bft) 97,87 %
27.04.2022 06:48 5,1 C 3,9 C 1,1 C 90 % 1024,7 hPa 0,0 l/m 0 min 0 min 22 W/m 0,0 km/h (0 Bft) 93,48 %
27.04.2022 06:50 5,1 C 3,9 C 1,1 C 90 % 1024,7 hPa 0,0 l/m 0 min 0 min 24 W/m 0,0 km/h (0 Bft) 91,49 %
27.04.2022 06:52 5,1 C 3,9 C 1,1 C 90 % 1024,7 hPa 0,0 l/m 0 min 0 min 26 W/m 0,0 km/h (0 Bft) 95,74 %
27.04.2022 06:54 5,1 C 4,4 C 1,1 C 90 % 1024,7 hPa 0,0 l/m 0 min 0 min 29 W/m 0,0 km/h (0 Bft) 95,74 %
27.04.2022 06:56 5,1 C 4,4 C 1,7 C 90 % 1024,7 hPa 0,0 l/m 0 min 0 min 31 W/m 0,0 km/h (0 Bft) 95,74 %
27.04.2022 06:58 5,1 C 4,4 C 1,7 C 90 % 1024,8 hPa 0,0 l/m 0 min 0 min 33 W/m 0,0 km/h (0 Bft) 93,62 %
27.04.2022 07:00 5,1 C 4,4 C 1,7 C 90 % 1024,8 hPa 0,0 l/m 0 min 0 min 34 W/m 0,0 km/h (0 Bft) 95,65 %
27.04.2022 07:02 5,1 C 4,4 C 1,7 C 90 % 1024,8 hPa 0,0 l/m 0 min 0 min 37 W/m 0,0 km/h (0 Bft) 93,18 %
27.04.2022 07:04 5,1 C 4,4 C 1,7 C 90 % 1024,8 hPa 0,0 l/m 0 min 0 min 39 W/m 0,0 km/h (0 Bft) 96,00 %
27.04.2022 07:06 5,1 C 4,4 C 1,7 C 91 % 1024,8 hPa 0,0 l/m 0 min 0 min 40 W/m 0,0 km/h (0 Bft) 91,49 %
27.04.2022 07:08 5,1 C 5,0 C 1,7 C 91 % 1024,8 hPa 0,0 l/m 0 min 0 min 43 W/m 0,0 km/h (0 Bft) 97,87 %
27.04.2022 07:10 5,1 C 5,0 C 1,7 C 91 % 1024,9 hPa 0,0 l/m 0 min 0 min 45 W/m 3,2 km/h (1 Bft) 95,65 %
27.04.2022 07:12 5,1 C 5,0 C 2,2 C 91 % 1024,9 hPa 0,0 l/m 0 min 0 min 47 W/m 0,0 km/h (0 Bft) 97,87 %
27.04.2022 07:14 5,2 C 5,0 C 2,2 C 91 % 1024,9 hPa 0,0 l/m 0 min 0 min 47 W/m 0,0 km/h (0 Bft) 97,87 %
27.04.2022 07:16 5,2 C 5,0 C 2,2 C 91 % 1024,9 hPa 0,0 l/m 0 min 0 min 49 W/m 3,2 km/h (1 Bft) 97,87 %
27.04.2022 07:18 5,2 C 5,0 C 2,2 C 91 % 1025,0 hPa 0,0 l/m 0 min 0 min 49 W/m 0,0 km/h (0 Bft) 97,87 %
27.04.2022 07:20 5,2 C 5,0 C 2,2 C 91 % 1025,0 hPa 0,0 l/m 0 min 0 min 48 W/m 0,0 km/h (0 Bft) 97,87 %
27.04.2022 07:22 5,2 C 5,6 C 2,2 C 91 % 1025,0 hPa 0,0 l/m 0 min 0 min 47 W/m 3,2 km/h (1 Bft) 97,83 %
27.04.2022 07:24 5,3 C 5,6 C 2,2 C 91 % 1025,0 hPa 0,0 l/m 0 min 0 min 46 W/m 3,2 km/h (1 Bft) 95,74 %
27.04.2022 07:26 5,3 C 5,6 C 2,2 C 91 % 1025,0 hPa 0,0 l/m 0 min 0 min 43 W/m 3,2 km/h (1 Bft) 95,74 %
27.04.2022 07:28 5,3 C 5,6 C 2,2 C 92 % 1025,0 hPa 0,0 l/m 0 min 0 min 42 W/m 3,2 km/h (1 Bft) 95,74 %
27.04.2022 07:30 5,4 C 5,6 C 2,2 C 92 % 1025,0 hPa 0,0 l/m 0 min 0 min 43 W/m 3,2 km/h (1 Bft) 97,87 %
27.04.2022 07:32 5,4 C 5,6 C 2,2 C 92 % 1025,0 hPa 0,0 l/m 0 min 0 min 44 W/m 6,4 km/h (2 Bft) 95,74 %
27.04.2022 07:34 5,5 C 5,6 C 2,2 C 92 % 1025,1 hPa 0,0 l/m 0 min 0 min 46 W/m 3,2 km/h (1 Bft) 95,65 %
27.04.2022 07:36 5,5 C 5,6 C 2,2 C 92 % 1025,1 hPa 0,0 l/m 0 min 0 min 47 W/m 3,2 km/h (1 Bft) 95,74 %
27.04.2022 07:38 5,6 C 5,6 C 2,8 C 92 % 1025,2 hPa 0,0 l/m 0 min 0 min 49 W/m 6,4 km/h (2 Bft) 95,74 %
27.04.2022 07:40 5,7 C 5,6 C 2,8 C 92 % 1025,1 hPa 0,0 l/m 0 min 0 min 50 W/m 6,4 km/h (2 Bft) 95,74 %
27.04.2022 07:42 5,7 C 5,6 C 2,8 C 92 % 1025,2 hPa 0,0 l/m 0 min 0 min 51 W/m 3,2 km/h (1 Bft) 91,49 %
27.04.2022 07:44 5,8 C 5,6 C 2,8 C 92 % 1025,1 hPa 0,0 l/m 0 min 0 min 53 W/m 6,4 km/h (2 Bft) 95,74 %
27.04.2022 07:46 5,8 C 6,1 C 2,8 C 92 % 1025,2 hPa 0,0 l/m 0 min 0 min 53 W/m 6,4 km/h (2 Bft) 95,65 %
27.04.2022 07:48 5,8 C 6,1 C 2,8 C 92 % 1025,2 hPa 0,0 l/m 0 min 0 min 54 W/m 9,7 km/h (2 Bft) 95,74 %
27.04.2022 07:50 5,9 C 6,1 C 2,8 C 91 % 1025,2 hPa 0,0 l/m 0 min 0 min 56 W/m 6,4 km/h (2 Bft) 97,87 %
27.04.2022 07:52 5,9 C 6,1 C 2,8 C 91 % 1025,3 hPa 0,0 l/m 0 min 0 min 56 W/m 6,4 km/h (2 Bft) 97,87 %
27.04.2022 07:54 6,0 C 6,1 C 2,8 C 91 % 1025,3 hPa 0,0 l/m 0 min 0 min 58 W/m 3,2 km/h (1 Bft) 97,87 %
27.04.2022 07:56 6,1 C 6,1 C 2,8 C 91 % 1025,3 hPa 0,0 l/m 0 min 0 min 60 W/m 6,4 km/h (2 Bft) 97,83 %
27.04.2022 07:58 6,1 C 6,1 C 2,8 C 91 % 1025,3 hPa 0,0 l/m 0 min 0 min 61 W/m 6,4 km/h (2 Bft) 97,87 %
27.04.2022 08:00 6,1 C 6,1 C 2,8 C 91 % 1025,3 hPa 0,0 l/m 0 min 0 min 62 W/m 6,4 km/h (2 Bft) 95,74 %
27.04.2022 08:02 6,2 C 6,1 C 2,8 C 91 % 1025,3 hPa 0,0 l/m 0 min 0 min 62 W/m 9,7 km/h (2 Bft) 97,73 %
27.04.2022 08:04 6,2 C 6,7 C 3,3 C 91 % 1025,3 hPa 0,0 l/m 0 min 0 min 63 W/m 3,2 km/h (1 Bft) 96,00 %
27.04.2022 08:06 6,3 C 6,7 C 3,3 C 91 % 1025,4 hPa 0,0 l/m 0 min 0 min 64 W/m 9,7 km/h (2 Bft) 97,87 %
27.04.2022 08:08 6,3 C 6,7 C 3,3 C 91 % 1025,3 hPa 0,0 l/m 0 min 0 min 65 W/m 9,7 km/h (2 Bft) 94,74 %
27.04.2022 08:10 6,3 C 6,7 C 3,3 C 91 % 1025,4 hPa 0,0 l/m 0 min 0 min 66 W/m 9,7 km/h (2 Bft) 97,83 %
27.04.2022 08:12 6,4 C 6,7 C 3,3 C 91 % 1025,4 hPa 0,0 l/m 0 min 0 min 68 W/m 6,4 km/h (2 Bft) 97,87 %
27.04.2022 08:14 6,5 C 6,7 C 3,3 C 91 % 1025,4 hPa 0,0 l/m 0 min 0 min 69 W/m 6,4 km/h (2 Bft) 97,87 %
27.04.2022 08:16 6,6 C 6,7 C 3,3 C 91 % 1025,4 hPa 0,0 l/m 0 min 0 min 71 W/m 6,4 km/h (2 Bft) 97,87 %
27.04.2022 08:18 6,6 C 6,7 C 3,3 C 91 % 1025,4 hPa 0,0 l/m 0 min 0 min 72 W/m 6,4 km/h (2 Bft) 97,87 %
27.04.2022 08:20 6,7 C 7,2 C 3,3 C 91 % 1025,4 hPa 0,0 l/m 0 min 0 min 74 W/m 6,4 km/h (2 Bft) 95,74 %
27.04.2022 08:22 6,8 C 7,2 C 3,3 C 91 % 1025,5 hPa 0,0 l/m 0 min 0 min 75 W/m 9,7 km/h (2 Bft) 93,48 %
27.04.2022 08:24 6,8 C 7,2 C 3,9 C 91 % 1025,5 hPa 0,0 l/m 0 min 0 min 76 W/m 6,4 km/h (2 Bft) 97,87 %
27.04.2022 08:26 6,9 C 7,2 C 3,9 C 91 % 1025,5 hPa 0,0 l/m 0 min 0 min 77 W/m 6,4 km/h (2 Bft) 97,87 %
27.04.2022 08:28 7,0 C 7,2 C 3,9 C 91 % 1025,5 hPa 0,0 l/m 0 min 0 min 77 W/m 9,7 km/h (2 Bft) 97,87 %
27.04.2022 08:30 7,1 C 7,2 C 3,9 C 91 % 1025,5 hPa 0,0 l/m 0 min 0 min 77 W/m 6,4 km/h (2 Bft) 97,87 %
27.04.2022 08:32 7,1 C 7,8 C 3,9 C 91 % 1025,5 hPa 0,0 l/m 0 min 0 min 79 W/m 6,4 km/h (2 Bft) 95,74 %
27.04.2022 08:34 7,2 C 7,8 C 3,9 C 91 % 1025,5 hPa 0,0 l/m 0 min 0 min 79 W/m 9,7 km/h (2 Bft) 97,83 %
27.04.2022 08:36 7,3 C 7,8 C 4,4 C 91 % 1025,6 hPa 0,0 l/m 0 min 0 min 80 W/m 9,7 km/h (2 Bft) 95,74 %
27.04.2022 08:38 7,3 C 7,8 C 4,4 C 91 % 1025,6 hPa 0,0 l/m 0 min 0 min 113 W/m 6,4 km/h (2 Bft) 97,87 %
27.04.2022 08:40 7,4 C 7,8 C 4,4 C 91 % 1025,6 hPa 0,0 l/m 2 min 0 min 265 W/m 9,7 km/h (2 Bft) 97,87 %
27.04.2022 08:42 7,6 C 8,3 C 4,4 C 91 % 1025,6 hPa 0,0 l/m 2 min 0 min 301 W/m 6,4 km/h (2 Bft) 95,74 %
27.04.2022 08:44 7,6 C 8,3 C 4,4 C 90 % 1025,6 hPa 0,0 l/m 2 min 0 min 308 W/m 6,4 km/h (2 Bft) 97,87 %
27.04.2022 08:46 7,7 C 9,4 C 4,4 C 90 % 1025,6 hPa 0,0 l/m 2 min 0 min 315 W/m 6,4 km/h (2 Bft) 97,83 %
27.04.2022 08:48 7,8 C 11,1 C 4,4 C 90 % 1025,6 hPa 0,0 l/m 2 min 0 min 321 W/m 6,4 km/h (2 Bft) 95,74 %
27.04.2022 08:50 7,9 C 12,2 C 5,0 C 90 % 1025,7 hPa 0,0 l/m 2 min 0 min 328 W/m 9,7 km/h (2 Bft) 97,87 %
27.04.2022 08:52 8,1 C 13,3 C 5,0 C 90 % 1025,7 hPa 0,0 l/m 2 min 0 min 334 W/m 6,4 km/h (2 Bft) 95,74 %
27.04.2022 08:54 8,2 C 13,9 C 5,0 C 89 % 1025,7 hPa 0,0 l/m 2 min 0 min 339 W/m 9,7 km/h (2 Bft) 95,74 %
27.04.2022 08:56 8,4 C 13,9 C 5,0 C 89 % 1025,7 hPa 0,0 l/m 2 min 0 min 344 W/m 9,7 km/h (2 Bft) 97,87 %
27.04.2022 08:58 8,5 C 13,9 C 5,0 C 89 % 1025,8 hPa 0,0 l/m 2 min 0 min 351 W/m 9,7 km/h (2 Bft) 97,96 %
27.04.2022 09:00 8,7 C 14,4 C 5,0 C 88 % 1025,8 hPa 0,0 l/m 2 min 0 min 357 W/m 9,7 km/h (2 Bft) 97,87 %
27.04.2022 09:02 8,8 C 14,4 C 5,6 C 88 % 1025,8 hPa 0,0 l/m 2 min 0 min 363 W/m 9,7 km/h (2 Bft) 97,56 %
27.04.2022 09:04 9,0 C 15,0 C 5,6 C 87 % 1025,8 hPa 0,0 l/m 2 min 0 min 371 W/m 9,7 km/h (2 Bft) 100,00 %
27.04.2022 09:06 9,1 C 14,4 C 6,1 C 86 % 1025,8 hPa 0,0 l/m 2 min 0 min 378 W/m 12,9 km/h (3 Bft) 97,87 %
27.04.2022 09:08 9,2 C 15,0 C 6,7 C 85 % 1025,8 hPa 0,0 l/m 2 min 0 min 381 W/m 9,7 km/h (2 Bft) 100,00 %
27.04.2022 09:10 9,4 C 15,0 C 6,7 C 85 % 1025,8 hPa 0,0 l/m 2 min 0 min 388 W/m 6,4 km/h (2 Bft) 100,00 %
27.04.2022 09:12 9,6 C 15,6 C 7,2 C 84 % 1025,8 hPa 0,0 l/m 2 min 0 min 394 W/m 6,4 km/h (2 Bft) 100,00 %
27.04.2022 09:14 9,8 C 15,6 C 7,8 C 83 % 1025,8 hPa 0,0 l/m 2 min 0 min 399 W/m 12,9 km/h (3 Bft) 100,00 %
27.04.2022 09:16 9,9 C 15,6 C 8,3 C 83 % 1025,9 hPa 0,0 l/m 2 min 0 min 406 W/m 6,4 km/h (2 Bft) 100,00 %
27.04.2022 09:18 10,1 C 15,6 C 8,3 C 82 % 1025,8 hPa 0,0 l/m 2 min 0 min 415 W/m 6,4 km/h (2 Bft) 97,83 %
27.04.2022 09:20 10,2 C 15,6 C 8,9 C 81 % 1025,8 hPa 0,0 l/m 2 min 0 min 420 W/m 6,4 km/h (2 Bft) 97,96 %
27.04.2022 09:22 10,3 C 15,6 C 8,9 C 81 % 1025,9 hPa 0,0 l/m 2 min 0 min 426 W/m 9,7 km/h (2 Bft) 100,00 %
27.04.2022 09:24 10,4 C 16,1 C 8,9 C 80 % 1025,9 hPa 0,0 l/m 2 min 0 min 435 W/m 6,4 km/h (2 Bft) 100,00 %
27.04.2022 09:26 10,6 C 16,7 C 8,9 C 80 % 1025,9 hPa 0,0 l/m 2 min 0 min 440 W/m 9,7 km/h (2 Bft) 97,87 %
27.04.2022 09:28 10,7 C 16,1 C 8,9 C 79 % 1025,9 hPa 0,0 l/m 2 min 0 min 442 W/m 6,4 km/h (2 Bft) 100,00 %
27.04.2022 09:30 10,8 C 16,7 C 9,4 C 79 % 1025,9 hPa 0,0 l/m 2 min 0 min 450 W/m 6,4 km/h (2 Bft) 100,00 %
27.04.2022 09:32 10,9 C 16,7 C 9,4 C 78 % 1025,9 hPa 0,0 l/m 2 min 0 min 454 W/m 16,1 km/h (3 Bft) 100,00 %
27.04.2022 09:34 11,0 C 16,1 C 9,4 C 78 % 1025,9 hPa 0,0 l/m 2 min 0 min 459 W/m 12,9 km/h (3 Bft) 100,00 %
27.04.2022 09:36 11,1 C 16,7 C 9,4 C 77 % 1026,0 hPa 0,0 l/m 2 min 0 min 467 W/m 6,4 km/h (2 Bft) 100,00 %
27.04.2022 09:38 11,2 C 16,7 C 8,9 C 77 % 1025,9 hPa 0,0 l/m 2 min 0 min 473 W/m 9,7 km/h (2 Bft) 100,00 %
27.04.2022 09:40 11,3 C 17,2 C 8,9 C 77 % 1026,0 hPa 0,0 l/m 2 min 0 min 480 W/m 6,4 km/h (2 Bft) 100,00 %
27.04.2022 09:42 11,4 C 17,2 C 8,3 C 76 % 1026,0 hPa 0,0 l/m 2 min 0 min 485 W/m 9,7 km/h (2 Bft) 97,92 %
27.04.2022 09:44 11,4 C 17,2 C 7,8 C 75 % 1026,0 hPa 0,0 l/m 2 min 0 min 489 W/m 12,9 km/h (3 Bft) 100,00 %
27.04.2022 09:46 11,5 C 17,2 C 7,8 C 75 % 1026,0 hPa 0,0 l/m 2 min 0 min 493 W/m 16,1 km/h (3 Bft) 96,30 %
27.04.2022 09:48 11,5 C 16,7 C 7,8 C 74 % 1026,0 hPa 0,0 l/m 2 min 0 min 496 W/m 12,9 km/h (3 Bft) 97,87 %
27.04.2022 09:50 11,5 C 17,2 C 7,2 C 74 % 1026,1 hPa 0,0 l/m 2 min 0 min 497 W/m 9,7 km/h (2 Bft) 98,08 %
27.04.2022 09:52 11,5 C 17,8 C 7,2 C 74 % 1026,0 hPa 0,0 l/m 0 min 0 min 257 W/m 6,4 km/h (2 Bft) 94,29 %
27.04.2022 09:54 11,6 C 17,8 C 7,2 C 74 % 1026,0 hPa 0,0 l/m 0 min 0 min 194 W/m 16,1 km/h (3 Bft) 97,87 %
27.04.2022 09:56 11,6 C 17,2 C 7,2 C 74 % 1026,0 hPa 0,0 l/m 0 min 0 min 234 W/m 12,9 km/h (3 Bft) 97,83 %
27.04.2022 09:58 11,7 C 16,7 C 7,2 C 74 % 1026,1 hPa 0,0 l/m 0 min 0 min 148 W/m 12,9 km/h (3 Bft) 97,87 %
27.04.2022 10:00 11,7 C 16,7 C 7,2 C 73 % 1026,1 hPa 0,0 l/m 0 min 0 min 197 W/m 16,1 km/h (3 Bft) 96,30 %
27.04.2022 10:02 11,7 C 16,7 C 7,2 C 73 % 1026,1 hPa 0,0 l/m 2 min 0 min 404 W/m 12,9 km/h (3 Bft) 98,00 %
27.04.2022 10:04 11,8 C 16,7 C 7,2 C 73 % 1026,1 hPa 0,0 l/m 2 min 0 min 513 W/m 12,9 km/h (3 Bft) 97,92 %
27.04.2022 10:06 11,8 C 17,2 C 7,8 C 73 % 1026,0 hPa 0,0 l/m 0 min 0 min 198 W/m 9,7 km/h (2 Bft) 97,87 %
27.04.2022 10:08 11,9 C 17,8 C 7,8 C 73 % 1026,0 hPa 0,0 l/m 0 min 0 min 231 W/m 9,7 km/h (2 Bft) 97,87 %
27.04.2022 10:10 12,0 C 18,3 C 7,8 C 72 % 1026,1 hPa 0,0 l/m 2 min 0 min 365 W/m 12,9 km/h (3 Bft) 97,87 %
27.04.2022 10:12 12,1 C 18,3 C 7,8 C 71 % 1026,1 hPa 0,0 l/m 2 min 0 min 417 W/m 16,1 km/h (3 Bft) 97,87 %
27.04.2022 10:14 12,1 C 17,2 C 7,8 C 70 % 1026,1 hPa 0,0 l/m 0 min 0 min 256 W/m 16,1 km/h (3 Bft) 97,14 %
27.04.2022 10:16 12,1 C 17,8 C 7,8 C 70 % 1026,1 hPa 0,0 l/m 0 min 0 min 285 W/m 12,9 km/h (3 Bft) 97,87 %
27.04.2022 10:18 12,1 C 17,8 C 7,8 C 71 % 1026,1 hPa 0,0 l/m 2 min 0 min 290 W/m 9,7 km/h (2 Bft) 96,23 %
27.04.2022 10:20 12,2 C 17,8 C 8,3 C 69 % 1026,2 hPa 0,0 l/m 2 min 0 min 421 W/m 12,9 km/h (3 Bft) 98,00 %
27.04.2022 10:22 12,2 C 18,3 C 8,9 C 68 % 1026,2 hPa 0,0 l/m 2 min 0 min 572 W/m 16,1 km/h (3 Bft) 95,74 %
27.04.2022 10:24 12,3 C 17,8 C 9,4 C 67 % 1026,2 hPa 0,0 l/m 2 min 0 min 591 W/m 12,9 km/h (3 Bft) 95,74 %
27.04.2022 10:26 12,4 C 17,8 C 9,4 C 67 % 1026,3 hPa 0,0 l/m 2 min 0 min 595 W/m 16,1 km/h (3 Bft) 97,92 %
27.04.2022 10:28 12,4 C 17,2 C 9,4 C 67 % 1026,2 hPa 0,0 l/m 2 min 0 min 579 W/m 12,9 km/h (3 Bft) 94,44 %
27.04.2022 10:30 12,5 C 17,2 C 9,4 C 66 % 1026,3 hPa 0,0 l/m 2 min 0 min 606 W/m 12,9 km/h (3 Bft) 94,34 %
27.04.2022 10:32 12,6 C 17,2 C 9,4 C 66 % 1026,3 hPa 0,0 l/m 2 min 0 min 606 W/m 9,7 km/h (2 Bft) 98,00 %
27.04.2022 10:34 12,6 C 16,7 C 10,0 C 65 % 1026,3 hPa 0,0 l/m 2 min 0 min 606 W/m 12,9 km/h (3 Bft) 95,74 %
27.04.2022 10:36 12,6 C 15,6 C 10,0 C 65 % 1026,4 hPa 0,0 l/m 2 min 0 min 606 W/m 9,7 km/h (2 Bft) 97,96 %
27.04.2022 10:38 12,6 C 16,1 C 10,0 C 66 % 1026,3 hPa 0,0 l/m 2 min 0 min 614 W/m 12,9 km/h (3 Bft) 94,29 %
27.04.2022 10:40 12,6 C 16,1 C 10,0 C 65 % 1026,3 hPa 0,0 l/m 2 min 0 min 627 W/m 6,4 km/h (2 Bft) 98,11 %
27.04.2022 10:42 12,7 C 16,1 C 10,0 C 65 % 1026,3 hPa 0,0 l/m 2 min 0 min 633 W/m 9,7 km/h (2 Bft) 95,74 %
27.04.2022 10:44 12,8 C 16,1 C 10,0 C 66 % 1026,3 hPa 0,0 l/m 2 min 0 min 639 W/m 9,7 km/h (2 Bft) 98,00 %
27.04.2022 10:46 12,8 C 15,0 C 9,4 C 65 % 1026,4 hPa 0,0 l/m 2 min 0 min 644 W/m 12,9 km/h (3 Bft) 95,92 %
27.04.2022 10:48 12,8 C 15,0 C 9,4 C 65 % 1026,3 hPa 0,0 l/m 2 min 0 min 647 W/m 9,7 km/h (2 Bft) 100,00 %
27.04.2022 10:50 12,8 C 16,1 C 9,4 C 65 % 1026,3 hPa 0,0 l/m 2 min 0 min 652 W/m 12,9 km/h (3 Bft) 94,44 %
27.04.2022 10:52 12,9 C 16,1 C 9,4 C 66 % 1026,3 hPa 0,0 l/m 2 min 0 min 657 W/m 9,7 km/h (2 Bft) 95,65 %
27.04.2022 10:54 12,9 C 16,1 C 9,4 C 66 % 1026,3 hPa 0,0 l/m 2 min 0 min 665 W/m 9,7 km/h (2 Bft) 98,00 %
27.04.2022 10:56 13,0 C 16,1 C 9,4 C 65 % 1026,3 hPa 0,0 l/m 2 min 0 min 670 W/m 19,3 km/h (3 Bft) 97,96 %
27.04.2022 10:58 13,1 C 15,6 C 10,0 C 64 % 1026,3 hPa 0,0 l/m 2 min 0 min 673 W/m 12,9 km/h (3 Bft) 100,00 %
27.04.2022 11:00 13,1 C 15,6 C 10,0 C 63 % 1026,3 hPa 0,0 l/m 2 min 0 min 677 W/m 19,3 km/h (3 Bft) 100,00 %
27.04.2022 11:02 13,2 C 15,0 C 10,0 C 63 % 1026,4 hPa 0,0 l/m 2 min 0 min 680 W/m 12,9 km/h (3 Bft) 100,00 %
27.04.2022 11:04 13,2 C 15,0 C 9,4 C 63 % 1026,4 hPa 0,0 l/m 2 min 0 min 685 W/m 12,9 km/h (3 Bft) 100,00 %
27.04.2022 11:06 13,2 C 14,4 C 9,4 C 63 % 1026,4 hPa 0,0 l/m 2 min 0 min 691 W/m 9,7 km/h (2 Bft) 100,00 %
27.04.2022 11:08 13,1 C 14,4 C 9,4 C 62 % 1026,4 hPa 0,0 l/m 2 min 0 min 694 W/m 12,9 km/h (3 Bft) 100,00 %
27.04.2022 11:10 13,1 C 14,4 C 9,4 C 62 % 1026,4 hPa 0,0 l/m 2 min 0 min 698 W/m 12,9 km/h (3 Bft) 100,00 %
27.04.2022 11:12 13,1 C 15,0 C 9,4 C 63 % 1026,4 hPa 0,0 l/m 2 min 0 min 702 W/m 12,9 km/h (3 Bft) 100,00 %
27.04.2022 11:14 13,2 C 15,0 C 10,0 C 64 % 1026,4 hPa 0,0 l/m 2 min 0 min 706 W/m 12,9 km/h (3 Bft) 100,00 %
27.04.2022 11:16 13,3 C 15,0 C 10,0 C 63 % 1026,4 hPa 0,0 l/m 2 min 0 min 710 W/m 16,1 km/h (3 Bft) 100,00 %
27.04.2022 11:18 13,4 C 15,0 C 10,6 C 62 % 1026,5 hPa 0,0 l/m 2 min 0 min 714 W/m 19,3 km/h (3 Bft) 100,00 %
27.04.2022 11:20 13,4 C 15,0 C 10,6 C 62 % 1026,5 hPa 0,0 l/m 2 min 0 min 717 W/m 12,9 km/h (3 Bft) 98,15 %
27.04.2022 11:22 13,4 C 15,6 C 10,0 C 63 % 1026,5 hPa 0,0 l/m 2 min 0 min 720 W/m 6,4 km/h (2 Bft) 100,00 %
27.04.2022 11:24 13,6 C 16,1 C 10,0 C 62 % 1026,4 hPa 0,0 l/m 2 min 0 min 722 W/m 6,4 km/h (2 Bft) 100,00 %
27.04.2022 11:26 13,6 C 16,7 C 10,0 C 63 % 1026,5 hPa 0,0 l/m 2 min 0 min 729 W/m 12,9 km/h (3 Bft) 100,00 %
27.04.2022 11:28 13,7 C 16,7 C 10,0 C 63 % 1026,5 hPa 0,0 l/m 2 min 0 min 732 W/m 9,7 km/h (2 Bft) 100,00 %
27.04.2022 11:30 13,8 C 17,2 C 10,6 C 63 % 1026,4 hPa 0,0 l/m 2 min 0 min 735 W/m 9,7 km/h (2 Bft) 100,00 %
27.04.2022 11:32 13,9 C 16,7 C 10,6 C 62 % 1026,5 hPa 0,0 l/m 2 min 0 min 737 W/m 9,7 km/h (2 Bft) 100,00 %
27.04.2022 11:34 14,0 C 16,7 C 10,6 C 62 % 1026,5 hPa 0,0 l/m 2 min 0 min 740 W/m 9,7 km/h (2 Bft) 100,00 %
27.04.2022 11:36 14,1 C 17,2 C 10,6 C 62 % 1026,5 hPa 0,0 l/m 2 min 0 min 744 W/m 6,4 km/h (2 Bft) 100,00 %
27.04.2022 11:38 14,1 C 17,2 C 11,1 C 61 % 1026,5 hPa 0,0 l/m 2 min 0 min 749 W/m 9,7 km/h (2 Bft) 100,00 %
27.04.2022 11:40 14,2 C 16,7 C 11,1 C 61 % 1026,5 hPa 0,0 l/m 2 min 0 min 753 W/m 12,9 km/h (3 Bft) 100,00 %
27.04.2022 11:42 14,2 C 16,1 C 11,1 C 60 % 1026,5 hPa 0,0 l/m 2 min 0 min 758 W/m 16,1 km/h (3 Bft) 100,00 %
27.04.2022 11:44 14,2 C 16,1 C 10,6 C 61 % 1026,5 hPa 0,0 l/m 2 min 0 min 759 W/m 9,7 km/h (2 Bft) 97,87 %
27.04.2022 11:46 14,2 C 16,7 C 11,1 C 60 % 1026,5 hPa 0,0 l/m 2 min 0 min 761 W/m 12,9 km/h (3 Bft) 97,87 %
27.04.2022 11:48 14,3 C 16,7 C 11,1 C 61 % 1026,5 hPa 0,0 l/m 2 min 0 min 769 W/m 9,7 km/h (2 Bft) 100,00 %
27.04.2022 11:50 14,3 C 16,1 C 11,1 C 60 % 1026,5 hPa 0,0 l/m 2 min 0 min 774 W/m 16,1 km/h (3 Bft) 100,00 %
27.04.2022 11:52 14,3 C 16,7 C 11,1 C 61 % 1026,5 hPa 0,0 l/m 2 min 0 min 773 W/m 6,4 km/h (2 Bft) 100,00 %
27.04.2022 11:54 14,3 C 16,7 C 11,7 C 61 % 1026,5 hPa 0,0 l/m 2 min 0 min 773 W/m 9,7 km/h (2 Bft) 100,00 %
27.04.2022 11:56 14,5 C 17,2 C 12,2 C 60 % 1026,5 hPa 0,0 l/m 2 min 0 min 774 W/m 6,4 km/h (2 Bft) 100,00 %
27.04.2022 11:58 14,6 C 17,8 C 13,3 C 60 % 1026,5 hPa 0,0 l/m 2 min 0 min 781 W/m 9,7 km/h (2 Bft) 100,00 %
27.04.2022 12:00 14,7 C 17,8 C 14,4 C 59 % 1026,4 hPa 0,0 l/m 2 min 0 min 786 W/m 9,7 km/h (2 Bft) 100,00 %
27.04.2022 12:02 14,8 C 18,3 C 15,0 C 59 % 1026,5 hPa 0,0 l/m 2 min 0 min 788 W/m 12,9 km/h (3 Bft) 100,00 %
27.04.2022 12:04 14,8 C 18,3 C 14,4 C 59 % 1026,5 hPa 0,0 l/m 2 min 0 min 789 W/m 19,3 km/h (3 Bft) 100,00 %
27.04.2022 12:08 15,0 C 18,9 C 14,4 C 57 % 1026,5 hPa 0,0 l/m 4 min 0 min 792 W/m 12,9 km/h (3 Bft) 100,00 %
27.04.2022 12:10 15,0 C 18,9 C 14,4 C 57 % 1026,5 hPa 0,0 l/m 2 min 0 min 803 W/m 19,3 km/h (3 Bft) 100,00 %
27.04.2022 12:12 15,1 C 18,9 C 15,0 C 57 % 1026,5 hPa 0,0 l/m 2 min 0 min 812 W/m 19,3 km/h (3 Bft) 100,00 %
27.04.2022 12:14 15,0 C 18,3 C 15,0 C 56 % 1026,5 hPa 0,0 l/m 2 min 0 min 801 W/m 12,9 km/h (3 Bft) 100,00 %
27.04.2022 12:16 14,9 C 18,3 C 15,6 C 57 % 1026,5 hPa 0,0 l/m 2 min 0 min 801 W/m 19,3 km/h (3 Bft) 100,00 %
27.04.2022 12:18 14,8 C 18,3 C 15,6 C 56 % 1026,5 hPa 0,0 l/m 2 min 0 min 805 W/m 12,9 km/h (3 Bft) 96,30 %
27.04.2022 12:20 14,8 C 18,9 C 16,1 C 58 % 1026,4 hPa 0,0 l/m 2 min 0 min 807 W/m 19,3 km/h (3 Bft) 98,00 %
27.04.2022 12:22 14,9 C 18,9 C 17,2 C 57 % 1026,4 hPa 0,0 l/m 2 min 0 min 809 W/m 9,7 km/h (2 Bft) 97,87 %
27.04.2022 12:24 14,9 C 18,3 C 17,8 C 57 % 1026,4 hPa 0,0 l/m 2 min 0 min 810 W/m 12,9 km/h (3 Bft) 95,83 %
27.04.2022 12:26 15,1 C 18,9 C 17,8 C 58 % 1026,4 hPa 0,0 l/m 2 min 0 min 811 W/m 9,7 km/h (2 Bft) 97,87 %
27.04.2022 12:28 15,1 C 18,9 C 18,3 C 57 % 1026,4 hPa 0,0 l/m 2 min 0 min 814 W/m 9,7 km/h (2 Bft) 97,87 %
27.04.2022 12:30 15,3 C 18,9 C 18,3 C 57 % 1026,4 hPa 0,0 l/m 2 min 0 min 818 W/m 9,7 km/h (2 Bft) 95,74 %
27.04.2022 12:32 15,3 C 18,9 C 18,3 C 57 % 1026,4 hPa 0,0 l/m 2 min 0 min 822 W/m 12,9 km/h (3 Bft) 97,87 %
27.04.2022 12:34 15,4 C 19,4 C 18,3 C 58 % 1026,4 hPa 0,0 l/m 2 min 0 min 826 W/m 9,7 km/h (2 Bft) 94,29 %
27.04.2022 12:36 15,6 C 20,0 C 18,9 C 58 % 1026,3 hPa 0,0 l/m 2 min 0 min 829 W/m 9,7 km/h (2 Bft) 95,74 %
27.04.2022 12:38 15,6 C 19,4 C 17,8 C 56 % 1026,4 hPa 0,0 l/m 2 min 0 min 830 W/m 12,9 km/h (3 Bft) 95,65 %
27.04.2022 12:40 15,6 C 20,0 C 17,8 C 57 % 1026,4 hPa 0,0 l/m 2 min 0 min 830 W/m 9,7 km/h (2 Bft) 91,49 %
27.04.2022 12:42 15,6 C 20,0 C 17,8 C 57 % 1026,3 hPa 0,0 l/m 2 min 0 min 829 W/m 12,9 km/h (3 Bft) 95,74 %
27.04.2022 12:44 15,7 C 19,4 C 17,8 C 57 % 1026,3 hPa 0,0 l/m 2 min 0 min 831 W/m 12,9 km/h (3 Bft) 95,74 %
27.04.2022 12:46 15,6 C 19,4 C 16,1 C 55 % 1026,4 hPa 0,0 l/m 2 min 0 min 842 W/m 12,9 km/h (3 Bft) 95,74 %
27.04.2022 12:48 15,5 C 18,9 C 16,1 C 56 % 1026,4 hPa 0,0 l/m 2 min 0 min 841 W/m 6,4 km/h (2 Bft) 95,74 %
27.04.2022 12:50 15,5 C 19,4 C 15,6 C 56 % 1026,4 hPa 0,0 l/m 2 min 0 min 842 W/m 9,7 km/h (2 Bft) 95,65 %
27.04.2022 12:52 15,6 C 19,4 C 15,0 C 57 % 1026,4 hPa 0,0 l/m 2 min 0 min 841 W/m 12,9 km/h (3 Bft) 95,74 %
27.04.2022 12:54 15,6 C 19,4 C 13,9 C 57 % 1026,3 hPa 0,0 l/m 2 min 0 min 838 W/m 12,9 km/h (3 Bft) 95,74 %
27.04.2022 12:56 15,7 C 18,9 C 13,3 C 56 % 1026,3 hPa 0,0 l/m 2 min 0 min 837 W/m 12,9 km/h (3 Bft) 93,62 %
27.04.2022 12:58 15,7 C 18,9 C 12,8 C 56 % 1026,4 hPa 0,0 l/m 2 min 0 min 840 W/m 12,9 km/h (3 Bft) 95,74 %
27.04.2022 13:00 15,7 C 18,9 C 12,8 C 56 % 1026,4 hPa 0,0 l/m 2 min 0 min 847 W/m 9,7 km/h (2 Bft) 95,74 %
27.04.2022 13:02 15,7 C 18,9 C 12,8 C 56 % 1026,4 hPa 0,0 l/m 2 min 0 min 852 W/m 12,9 km/h (3 Bft) 95,65 %
27.04.2022 13:04 15,8 C 18,9 C 12,2 C 56 % 1026,4 hPa 0,0 l/m 2 min 0 min 850 W/m 12,9 km/h (3 Bft) 97,87 %
27.04.2022 13:06 15,7 C 18,3 C 11,7 C 56 % 1026,3 hPa 0,0 l/m 2 min 0 min 848 W/m 12,9 km/h (3 Bft) 95,74 %
27.04.2022 13:08 15,6 C 18,3 C 11,7 C 56 % 1026,4 hPa 0,0 l/m 2 min 0 min 845 W/m 12,9 km/h (3 Bft) 97,87 %
27.04.2022 13:10 15,7 C 18,9 C 11,7 C 55 % 1026,4 hPa 0,0 l/m 2 min 0 min 853 W/m 12,9 km/h (3 Bft) 100,00 %
27.04.2022 13:12 15,8 C 18,9 C 11,7 C 55 % 1026,4 hPa 0,0 l/m 2 min 0 min 856 W/m 12,9 km/h (3 Bft) 100,00 %
27.04.2022 13:14 15,7 C 18,9 C 11,7 C 55 % 1026,3 hPa 0,0 l/m 2 min 0 min 860 W/m 9,7 km/h (2 Bft) 97,87 %
27.04.2022 13:16 15,6 C 18,9 C 11,7 C 55 % 1026,4 hPa 0,0 l/m 2 min 0 min 857 W/m 9,7 km/h (2 Bft) 100,00 %
27.04.2022 13:18 15,7 C 18,9 C 11,7 C 56 % 1026,4 hPa 0,0 l/m 2 min 0 min 850 W/m 12,9 km/h (3 Bft) 100,00 %
27.04.2022 13:20 15,7 C 18,9 C 11,7 C 55 % 1026,4 hPa 0,0 l/m 2 min 0 min 846 W/m 12,9 km/h (3 Bft) 100,00 %
27.04.2022 13:22 15,7 C 18,3 C 11,7 C 55 % 1026,4 hPa 0,0 l/m 2 min 0 min 848 W/m 12,9 km/h (3 Bft) 100,00 %
27.04.2022 13:24 15,7 C 18,3 C 11,7 C 55 % 1026,4 hPa 0,0 l/m 2 min 0 min 848 W/m 12,9 km/h (3 Bft) 97,83 %
27.04.2022 13:26 15,7 C 18,9 C 11,7 C 56 % 1026,3 hPa 0,0 l/m 2 min 0 min 855 W/m 9,7 km/h (2 Bft) 97,87 %
27.04.2022 13:28 15,8 C 20,0 C 11,7 C 57 % 1026,4 hPa 0,0 l/m 2 min 0 min 859 W/m 6,4 km/h (2 Bft) 100,00 %
27.04.2022 13:30 16,0 C 20,6 C 12,2 C 57 % 1026,3 hPa 0,0 l/m 2 min 0 min 860 W/m 6,4 km/h (2 Bft) 100,00 %
27.04.2022 13:32 16,1 C 20,0 C 12,2 C 57 % 1026,3 hPa 0,0 l/m 2 min 0 min 859 W/m 12,9 km/h (3 Bft) 100,00 %
27.04.2022 13:34 16,1 C 19,4 C 12,2 C 55 % 1026,3 hPa 0,0 l/m 2 min 0 min 858 W/m 16,1 km/h (3 Bft) 100,00 %
27.04.2022 13:36 16,0 C 19,4 C 12,8 C 54 % 1026,3 hPa 0,0 l/m 2 min 0 min 859 W/m 12,9 km/h (3 Bft) 100,00 %
27.04.2022 13:38 15,9 C 19,4 C 15,0 C 54 % 1026,2 hPa 0,0 l/m 2 min 0 min 855 W/m 6,4 km/h (2 Bft) 97,87 %
27.04.2022 13:40 15,9 C 20,0 C 16,1 C 55 % 1026,3 hPa 0,0 l/m 2 min 0 min 857 W/m 6,4 km/h (2 Bft) 100,00 %
27.04.2022 13:42 16,0 C 20,0 C 15,6 C 56 % 1026,3 hPa 0,0 l/m 2 min 0 min 857 W/m 16,1 km/h (3 Bft) 100,00 %
27.04.2022 13:44 16,1 C 20,6 C 15,0 C 56 % 1026,2 hPa 0,0 l/m 2 min 0 min 857 W/m 16,1 km/h (3 Bft) 97,87 %
27.04.2022 13:46 16,1 C 20,6 C 15,0 C 57 % 1026,3 hPa 0,0 l/m 2 min 0 min 858 W/m 12,9 km/h (3 Bft) 100,00 %
27.04.2022 13:48 16,3 C 21,1 C 14,4 C 57 % 1026,3 hPa 0,0 l/m 2 min 0 min 858 W/m 19,3 km/h (3 Bft) 100,00 %
27.04.2022 13:50 16,3 C 21,1 C 13,3 C 56 % 1026,3 hPa 0,0 l/m 2 min 0 min 855 W/m 9,7 km/h (2 Bft) 97,87 %
27.04.2022 13:55 16,4 C 20,6 C 12,8 C 56 % 1026,2 hPa 0,0 l/m 5 min 0 min 857 W/m 9,7 km/h (2 Bft) 100,00 %
27.04.2022 14:00 16,7 C 21,7 C 12,8 C 56 % 1026,2 hPa 0,0 l/m 5 min 0 min 856 W/m 9,7 km/h (2 Bft) 100,00 %
27.04.2022 14:05 16,8 C 20,6 C 12,2 C 56 % 1026,2 hPa 0,0 l/m 5 min 0 min 854 W/m 16,1 km/h (3 Bft) 100,00 %
27.04.2022 14:10 16,7 C 21,1 C 12,2 C 57 % 1026,2 hPa 0,0 l/m 5 min 0 min 840 W/m 12,9 km/h (3 Bft) 100,00 %
27.04.2022 14:15 16,7 C 20,6 C 11,7 C 54 % 1026,2 hPa 0,0 l/m 5 min 0 min 807 W/m 12,9 km/h (3 Bft) 100,00 %
27.04.2022 14:20 16,7 C 21,1 C 12,2 C 56 % 1026,2 hPa 0,0 l/m 5 min 0 min 849 W/m 12,9 km/h (3 Bft) 100,00 %
27.04.2022 14:25 16,7 C 21,1 C 11,7 C 54 % 1026,2 hPa 0,0 l/m 5 min 0 min 819 W/m 16,1 km/h (3 Bft) 100,00 %
27.04.2022 14:30 16,8 C 21,1 C 12,2 C 54 % 1026,2 hPa 0,0 l/m 5 min 0 min 859 W/m 12,9 km/h (3 Bft) 100,00 %
27.04.2022 14:35 16,9 C 22,2 C 12,2 C 56 % 1026,2 hPa 0,0 l/m 5 min 0 min 868 W/m 6,4 km/h (2 Bft) 100,00 %
27.04.2022 14:40 16,9 C 22,2 C 12,2 C 54 % 1026,2 hPa 0,0 l/m 5 min 0 min 877 W/m 12,9 km/h (3 Bft) 98,25 %
27.04.2022 14:45 16,8 C 20,6 C 12,2 C 55 % 1026,1 hPa 0,0 l/m 5 min 0 min 841 W/m 12,9 km/h (3 Bft) 98,25 %
27.04.2022 14:50 16,9 C 21,7 C 12,8 C 55 % 1026,1 hPa 0,0 l/m 5 min 0 min 882 W/m 19,3 km/h (3 Bft) 98,25 %
27.04.2022 14:55 17,2 C 22,2 C 12,8 C 56 % 1026,1 hPa 0,0 l/m 5 min 0 min 856 W/m 16,1 km/h (3 Bft) 96,49 %
27.04.2022 15:00 17,3 C 21,1 C 12,8 C 54 % 1026,1 hPa 0,0 l/m 5 min 0 min 823 W/m 16,1 km/h (3 Bft) 96,49 %
27.04.2022 15:05 17,2 C 21,1 C 12,8 C 54 % 1026,0 hPa 0,0 l/m 5 min 0 min 811 W/m 19,3 km/h (3 Bft) 93,86 %
27.04.2022 15:10 17,4 C 21,7 C 12,8 C 55 % 1026,0 hPa 0,0 l/m 5 min 0 min 792 W/m 9,7 km/h (2 Bft) 96,49 %
27.04.2022 15:15 17,4 C 22,2 C 12,2 C 54 % 1026,0 hPa 0,0 l/m 5 min 0 min 797 W/m 16,1 km/h (3 Bft) 100,00 %
27.04.2022 15:20 17,3 C 21,7 C 12,2 C 54 % 1026,0 hPa 0,0 l/m 5 min 0 min 784 W/m 12,9 km/h (3 Bft) 97,37 %
27.04.2022 15:25 17,3 C 20,6 C 12,2 C 54 % 1025,9 hPa 0,0 l/m 5 min 0 min 754 W/m 19,3 km/h (3 Bft) 97,37 %
27.04.2022 15:30 17,2 C 20,6 C 12,2 C 55 % 1025,9 hPa 0,0 l/m 5 min 0 min 768 W/m 19,3 km/h (3 Bft) 98,25 %
27.04.2022 15:35 16,9 C 19,4 C 12,2 C 54 % 1025,9 hPa 0,0 l/m 5 min 0 min 769 W/m 12,9 km/h (3 Bft) 97,37 %
27.04.2022 15:40 17,0 C 21,1 C 12,2 C 56 % 1025,8 hPa 0,0 l/m 5 min 0 min 761 W/m 9,7 km/h (2 Bft) 98,25 %
27.04.2022 15:45 17,2 C 22,2 C 12,8 C 55 % 1025,8 hPa 0,0 l/m 5 min 0 min 746 W/m 12,9 km/h (3 Bft) 100,00 %
27.04.2022 15:50 17,3 C 22,2 C 12,8 C 55 % 1025,8 hPa 0,0 l/m 5 min 0 min 735 W/m 19,3 km/h (3 Bft) 100,00 %
27.04.2022 15:55 17,2 C 21,7 C 12,2 C 54 % 1025,8 hPa 0,0 l/m 5 min 0 min 727 W/m 16,1 km/h (3 Bft) 100,00 %
27.04.2022 16:00 17,1 C 22,2 C 12,8 C 56 % 1025,7 hPa 0,0 l/m 5 min 0 min 724 W/m 12,9 km/h (3 Bft) 100,00 %
27.04.2022 16:05 17,3 C 22,8 C 12,8 C 55 % 1025,7 hPa 0,0 l/m 5 min 0 min 710 W/m 19,3 km/h (3 Bft) 100,00 %
27.04.2022 16:10 17,3 C 23,3 C 12,8 C 56 % 1025,7 hPa 0,0 l/m 5 min 0 min 706 W/m 12,9 km/h (3 Bft) 100,00 %
27.04.2022 16:15 17,6 C 23,9 C 13,3 C 56 % 1025,6 hPa 0,0 l/m 5 min 0 min 695 W/m 16,1 km/h (3 Bft) 100,00 %
27.04.2022 16:20 17,7 C 25,6 C 13,9 C 56 % 1025,7 hPa 0,0 l/m 5 min 0 min 671 W/m 9,7 km/h (2 Bft) 100,00 %
27.04.2022 16:25 17,9 C 25,6 C 13,9 C 55 % 1025,6 hPa 0,0 l/m 5 min 0 min 667 W/m 12,9 km/h (3 Bft) 100,00 %
27.04.2022 16:30 18,0 C 25,6 C 13,9 C 55 % 1025,6 hPa 0,0 l/m 5 min 0 min 660 W/m 9,7 km/h (2 Bft) 100,00 %
27.04.2022 16:35 18,2 C 26,1 C 13,9 C 55 % 1025,6 hPa 0,0 l/m 5 min 0 min 639 W/m 9,7 km/h (2 Bft) 100,00 %
27.04.2022 16:40 18,2 C 25,0 C 13,9 C 54 % 1025,5 hPa 0,0 l/m 5 min 0 min 641 W/m 16,1 km/h (3 Bft) 100,00 %
27.04.2022 16:45 18,1 C 25,0 C 13,9 C 53 % 1025,5 hPa 0,0 l/m 5 min 0 min 624 W/m 9,7 km/h (2 Bft) 100,00 %
27.04.2022 16:50 18,1 C 25,6 C 13,9 C 53 % 1025,5 hPa 0,0 l/m 5 min 0 min 601 W/m 16,1 km/h (3 Bft) 100,00 %
27.04.2022 16:55 17,9 C 23,9 C 13,3 C 54 % 1025,5 hPa 0,0 l/m 5 min 0 min 588 W/m 9,7 km/h (2 Bft) 98,25 %
27.04.2022 17:00 17,6 C 23,3 C 12,8 C 54 % 1025,4 hPa 0,0 l/m 5 min 0 min 580 W/m 9,7 km/h (2 Bft) 100,00 %
27.04.2022 17:05 17,7 C 23,9 C 13,9 C 55 % 1025,5 hPa 0,0 l/m 5 min 0 min 569 W/m 16,1 km/h (3 Bft) 100,00 %
27.04.2022 17:10 17,6 C 23,9 C 13,9 C 54 % 1025,5 hPa 0,0 l/m 5 min 0 min 550 W/m 19,3 km/h (3 Bft) 100,00 %
27.04.2022 17:15 17,7 C 24,4 C 13,9 C 55 % 1025,6 hPa 0,0 l/m 5 min 0 min 534 W/m 6,4 km/h (2 Bft) 100,00 %
27.04.2022 17:20 17,6 C 22,8 C 13,3 C 54 % 1025,5 hPa 0,0 l/m 5 min 0 min 526 W/m 16,1 km/h (3 Bft) 100,00 %
27.04.2022 17:25 17,3 C 21,7 C 12,8 C 56 % 1025,4 hPa 0,0 l/m 5 min 0 min 512 W/m 9,7 km/h (2 Bft) 100,00 %
27.04.2022 17:30 17,2 C 21,7 C 12,8 C 55 % 1025,4 hPa 0,0 l/m 5 min 0 min 504 W/m 19,3 km/h (3 Bft) 100,00 %
27.04.2022 17:35 17,1 C 21,7 C 13,3 C 55 % 1025,5 hPa 0,0 l/m 5 min 0 min 482 W/m 19,3 km/h (3 Bft) 100,00 %
27.04.2022 17:40 17,1 C 21,7 C 13,3 C 55 % 1025,4 hPa 0,0 l/m 5 min 0 min 465 W/m 12,9 km/h (3 Bft) 100,00 %
27.04.2022 17:45 17,1 C 22,2 C 13,3 C 55 % 1025,4 hPa 0,0 l/m 5 min 0 min 451 W/m 9,7 km/h (2 Bft) 100,00 %
27.04.2022 17:50 17,2 C 23,3 C 13,9 C 56 % 1025,5 hPa 0,0 l/m 5 min 0 min 438 W/m 12,9 km/h (3 Bft) 100,00 %
27.04.2022 17:55 17,3 C 22,2 C 13,3 C 55 % 1025,5 hPa 0,0 l/m 5 min 0 min 423 W/m 9,7 km/h (2 Bft) 99,12 %
27.04.2022 18:00 17,5 C 22,8 C 13,3 C 55 % 1025,5 hPa 0,0 l/m 5 min 0 min 412 W/m 12,9 km/h (3 Bft) 100,00 %
27.04.2022 18:05 17,6 C 23,3 C 13,9 C 56 % 1025,5 hPa 0,0 l/m 5 min 0 min 395 W/m 12,9 km/h (3 Bft) 100,00 %
27.04.2022 18:10 17,7 C 22,8 C 13,9 C 55 % 1025,4 hPa 0,0 l/m 5 min 0 min 382 W/m 22,5 km/h (4 Bft) 97,37 %
27.04.2022 18:15 17,6 C 22,8 C 13,9 C 55 % 1025,5 hPa 0,0 l/m 5 min 0 min 366 W/m 12,9 km/h (3 Bft) 99,12 %
27.04.2022 18:20 17,4 C 21,7 C 12,8 C 55 % 1025,4 hPa 0,0 l/m 5 min 0 min 351 W/m 12,9 km/h (3 Bft) 100,00 %
27.04.2022 18:25 17,4 C 22,8 C 13,3 C 56 % 1025,4 hPa 0,0 l/m 5 min 0 min 338 W/m 19,3 km/h (3 Bft) 100,00 %
27.04.2022 18:30 17,5 C 22,8 C 13,3 C 54 % 1025,4 hPa 0,0 l/m 5 min 0 min 322 W/m 16,1 km/h (3 Bft) 98,25 %
27.04.2022 18:35 17,3 C 22,2 C 12,8 C 56 % 1025,4 hPa 0,0 l/m 5 min 0 min 306 W/m 12,9 km/h (3 Bft) 100,00 %
27.04.2022 18:40 17,3 C 22,2 C 12,8 C 56 % 1025,4 hPa 0,0 l/m 5 min 0 min 292 W/m 9,7 km/h (2 Bft) 100,00 %
27.04.2022 18:45 17,1 C 18,9 C 12,2 C 56 % 1025,4 hPa 0,0 l/m 5 min 0 min 274 W/m 16,1 km/h (3 Bft) 100,00 %
27.04.2022 18:50 17,0 C 17,2 C 12,2 C 57 % 1025,5 hPa 0,0 l/m 5 min 0 min 255 W/m 9,7 km/h (2 Bft) 100,00 %
27.04.2022 18:55 16,8 C 16,1 C 12,2 C 57 % 1025,4 hPa 0,0 l/m 5 min 0 min 237 W/m 16,1 km/h (3 Bft) 99,12 %
27.04.2022 19:00 16,5 C 16,1 C 11,7 C 57 % 1025,5 hPa 0,0 l/m 5 min 0 min 194 W/m 19,3 km/h (3 Bft) 100,00 %
27.04.2022 19:05 16,3 C 15,6 C 11,7 C 58 % 1025,4 hPa 0,0 l/m 0 min 0 min 72 W/m 16,1 km/h (3 Bft) 100,00 %
27.04.2022 19:10 16,2 C 15,6 C 11,7 C 57 % 1025,4 hPa 0,0 l/m 0 min 0 min 65 W/m 25,7 km/h (4 Bft) 100,00 %
27.04.2022 19:15 16,0 C 15,6 C 11,1 C 58 % 1025,4 hPa 0,0 l/m 0 min 0 min 62 W/m 19,3 km/h (3 Bft) 100,00 %
27.04.2022 19:20 15,8 C 15,0 C 11,1 C 58 % 1025,5 hPa 0,0 l/m 0 min 0 min 61 W/m 12,9 km/h (3 Bft) 100,00 %
27.04.2022 19:25 15,7 C 15,0 C 11,1 C 59 % 1025,5 hPa 0,0 l/m 0 min 0 min 57 W/m 19,3 km/h (3 Bft) 100,00 %
27.04.2022 19:30 15,7 C 15,6 C 11,1 C 59 % 1025,5 hPa 0,0 l/m 0 min 0 min 54 W/m 12,9 km/h (3 Bft) 100,00 %
27.04.2022 19:35 15,7 C 15,0 C 11,1 C 59 % 1025,5 hPa 0,0 l/m 0 min 0 min 51 W/m 22,5 km/h (4 Bft) 100,00 %
27.04.2022 19:40 15,6 C 15,0 C 11,1 C 60 % 1025,6 hPa 0,0 l/m 0 min 0 min 48 W/m 16,1 km/h (3 Bft) 100,00 %
27.04.2022 19:45 15,5 C 15,0 C 10,6 C 60 % 1025,6 hPa 0,0 l/m 0 min 0 min 45 W/m 12,9 km/h (3 Bft) 99,12 %
27.04.2022 19:50 15,3 C 14,4 C 10,6 C 60 % 1025,6 hPa 0,0 l/m 0 min 0 min 41 W/m 12,9 km/h (3 Bft) 100,00 %
27.04.2022 19:55 15,2 C 14,4 C 10,6 C 60 % 1025,7 hPa 0,0 l/m 0 min 0 min 39 W/m 12,9 km/h (3 Bft) 100,00 %
27.04.2022 20:00 15,1 C 14,4 C 10,6 C 60 % 1025,7 hPa 0,0 l/m 0 min 0 min 35 W/m 12,9 km/h (3 Bft) 100,00 %
27.04.2022 20:05 14,9 C 14,4 C 10,0 C 60 % 1025,7 hPa 0,0 l/m 0 min 0 min 32 W/m 9,7 km/h (2 Bft) 100,00 %
27.04.2022 20:10 14,8 C 13,9 C 10,0 C 60 % 1025,8 hPa 0,0 l/m 0 min 0 min 29 W/m 16,1 km/h (3 Bft) 100,00 %
27.04.2022 20:15 14,6 C 13,9 C 10,0 C 60 % 1025,8 hPa 0,0 l/m 0 min 0 min 26 W/m 16,1 km/h (3 Bft) 100,00 %
27.04.2022 20:20 14,4 C 13,9 C 10,0 C 60 % 1025,9 hPa 0,0 l/m 0 min 0 min 24 W/m 16,1 km/h (3 Bft) 100,00 %
27.04.2022 20:25 14,3 C 13,3 C 9,4 C 60 % 1026,0 hPa 0,0 l/m 0 min 0 min 21 W/m 12,9 km/h (3 Bft) 100,00 %
27.04.2022 20:30 14,3 C 13,3 C 9,4 C 60 % 1026,0 hPa 0,0 l/m 0 min 0 min 18 W/m 12,9 km/h (3 Bft) 98,25 %
27.04.2022 20:35 14,3 C 13,3 C 9,4 C 61 % 1026,1 hPa 0,0 l/m 0 min 0 min 15 W/m 9,7 km/h (2 Bft) 97,37 %
27.04.2022 20:40 14,1 C 12,8 C 9,4 C 61 % 1026,1 hPa 0,0 l/m 0 min 0 min 12 W/m 12,9 km/h (3 Bft) 97,37 %
27.04.2022 20:45 14,0 C 12,8 C 9,4 C 62 % 1026,1 hPa 0,0 l/m 0 min 0 min 9 W/m 12,9 km/h (3 Bft) 97,37 %
27.04.2022 20:50 13,8 C 12,8 C 8,9 C 62 % 1026,2 hPa 0,0 l/m 0 min 0 min 7 W/m 9,7 km/h (2 Bft) 96,49 %
27.04.2022 20:55 13,8 C 12,8 C 8,9 C 63 % 1026,3 hPa 0,0 l/m 0 min 0 min 4 W/m 9,7 km/h (2 Bft) 98,25 %
27.04.2022 21:00 13,6 C 12,8 C 8,9 C 63 % 1026,3 hPa 0,0 l/m 0 min 0 min 0 W/m 12,9 km/h (3 Bft) 97,37 %
27.04.2022 21:05 13,5 C 12,2 C 8,9 C 62 % 1026,3 hPa 0,0 l/m 0 min 0 min 0 W/m 12,9 km/h (3 Bft) 99,12 %
27.04.2022 21:10 13,4 C 12,2 C 8,3 C 63 % 1026,4 hPa 0,0 l/m 0 min 0 min 0 W/m 6,4 km/h (2 Bft) 100,00 %
27.04.2022 21:15 13,3 C 12,2 C 8,3 C 63 % 1026,5 hPa 0,0 l/m 0 min 0 min 0 W/m 9,7 km/h (2 Bft) 100,00 %
27.04.2022 21:20 13,2 C 12,2 C 8,3 C 64 % 1026,5 hPa 0,0 l/m 0 min 0 min 0 W/m 9,7 km/h (2 Bft) 99,12 %
27.04.2022 21:25 13,1 C 11,7 C 8,3 C 64 % 1026,6 hPa 0,0 l/m 0 min 0 min 0 W/m 6,4 km/h (2 Bft) 100,00 %
27.04.2022 21:30 13,0 C 11,7 C 7,8 C 65 % 1026,6 hPa 0,0 l/m 0 min 0 min 0 W/m 3,2 km/h (1 Bft) 100,00 %
27.04.2022 21:35 12,9 C 11,7 C 7,8 C 66 % 1026,7 hPa 0,0 l/m 0 min 0 min 0 W/m 3,2 km/h (1 Bft) 100,00 %
27.04.2022 21:40 12,8 C 11,1 C 7,8 C 66 % 1026,7 hPa 0,0 l/m 0 min 0 min 0 W/m 3,2 km/h (1 Bft) 100,00 %
27.04.2022 21:45 12,7 C 11,1 C 7,8 C 66 % 1026,7 hPa 0,0 l/m 0 min 0 min 0 W/m 3,2 km/h (1 Bft) 100,00 %
27.04.2022 21:50 12,6 C 11,1 C 7,8 C 66 % 1026,7 hPa 0,0 l/m 0 min 0 min 0 W/m 6,4 km/h (2 Bft) 100,00 %
27.04.2022 21:55 12,4 C 11,1 C 7,8 C 67 % 1026,7 hPa 0,0 l/m 0 min 0 min 0 W/m 3,2 km/h (1 Bft) 100,00 %
27.04.2022 22:00 12,3 C 11,1 C 7,8 C 66 % 1026,7 hPa 0,0 l/m 0 min 0 min 0 W/m 3,2 km/h (1 Bft) 100,00 %
27.04.2022 22:05 12,3 C 11,1 C 7,2 C 67 % 1026,8 hPa 0,0 l/m 0 min 0 min 0 W/m 3,2 km/h (1 Bft) 100,00 %
27.04.2022 22:10 12,2 C 11,1 C 7,2 C 67 % 1026,9 hPa 0,0 l/m 0 min 0 min 0 W/m 9,7 km/h (2 Bft) 100,00 %
27.04.2022 22:15 12,1 C 11,1 C 7,8 C 67 % 1027,0 hPa 0,0 l/m 0 min 0 min 0 W/m 12,9 km/h (3 Bft) 100,00 %
27.04.2022 22:20 12,1 C 11,1 C 7,8 C 67 % 1027,0 hPa 0,0 l/m 0 min 0 min 0 W/m 9,7 km/h (2 Bft) 100,00 %
27.04.2022 22:25 12,1 C 11,1 C 7,8 C 67 % 1027,0 hPa 0,0 l/m 0 min 0 min 0 W/m 16,1 km/h (3 Bft) 100,00 %
27.04.2022 22:30 12,0 C 11,1 C 7,8 C 67 % 1027,1 hPa 0,0 l/m 0 min 0 min 0 W/m 19,3 km/h (3 Bft) 100,00 %
27.04.2022 22:35 12,0 C 11,1 C 7,8 C 67 % 1027,2 hPa 0,0 l/m 0 min 0 min 0 W/m 19,3 km/h (3 Bft) 100,00 %
27.04.2022 22:40 11,9 C 11,1 C 7,2 C 68 % 1027,3 hPa 0,0 l/m 0 min 0 min 0 W/m 9,7 km/h (2 Bft) 100,00 %
27.04.2022 22:45 11,8 C 10,6 C 7,2 C 69 % 1027,3 hPa 0,0 l/m 0 min 0 min 0 W/m 12,9 km/h (3 Bft) 100,00 %
27.04.2022 22:50 11,7 C 10,6 C 7,2 C 69 % 1027,2 hPa 0,0 l/m 0 min 0 min 0 W/m 9,7 km/h (2 Bft) 99,12 %
27.04.2022 22:55 11,6 C 10,6 C 7,2 C 69 % 1027,3 hPa 0,0 l/m 0 min 0 min 0 W/m 9,7 km/h (2 Bft) 98,25 %
27.04.2022 23:00 11,5 C 10,6 C 6,7 C 70 % 1027,2 hPa 0,0 l/m 0 min 0 min 0 W/m 9,7 km/h (2 Bft) 97,37 %
27.04.2022 23:05 11,4 C 10,6 C 6,7 C 70 % 1027,3 hPa 0,0 l/m 0 min 0 min 0 W/m 9,7 km/h (2 Bft) 98,25 %
27.04.2022 23:10 11,3 C 10,0 C 6,7 C 70 % 1027,3 hPa 0,0 l/m 0 min 0 min 0 W/m 9,7 km/h (2 Bft) 98,25 %
27.04.2022 23:15 11,2 C 10,0 C 6,7 C 71 % 1027,3 hPa 0,0 l/m 0 min 0 min 0 W/m 6,4 km/h (2 Bft) 99,12 %
27.04.2022 23:20 11,0 C 10,0 C 6,7 C 71 % 1027,3 hPa 0,0 l/m 0 min 0 min 0 W/m 6,4 km/h (2 Bft) 100,00 %
27.04.2022 23:25 10,9 C 10,0 C 6,7 C 71 % 1027,4 hPa 0,0 l/m 0 min 0 min 0 W/m 12,9 km/h (3 Bft) 100,00 %
27.04.2022 23:30 10,8 C 10,0 C 6,7 C 71 % 1027,4 hPa 0,0 l/m 0 min 0 min 0 W/m 12,9 km/h (3 Bft) 100,00 %
27.04.2022 23:35 10,7 C 10,0 C 6,7 C 71 % 1027,5 hPa 0,0 l/m 0 min 0 min 0 W/m 12,9 km/h (3 Bft) 100,00 %
27.04.2022 23:40 10,7 C 10,0 C 6,1 C 71 % 1027,5 hPa 0,0 l/m 0 min 0 min 0 W/m 9,7 km/h (2 Bft) 100,00 %
27.04.2022 23:45 10,6 C 9,4 C 6,1 C 71 % 1027,6 hPa 0,0 l/m 0 min 0 min 0 W/m 9,7 km/h (2 Bft) 100,00 %
27.04.2022 23:50 10,6 C 9,4 C 6,1 C 72 % 1027,7 hPa 0,0 l/m 0 min 0 min 0 W/m 6,4 km/h (2 Bft) 100,00 %
27.04.2022 23:55 10,4 C 9,4 C 6,1 C 73 % 1027,7 hPa 0,0 l/m 0 min 0 min 0 W/m 9,7 km/h (2 Bft) 99,12 %
_ Min-Zeit 06:38 06:12 06:18 16:45 00:00 - - - - 02:42 00:02
Minimum _ 5,1 C 3,9 C 1,1 C 53 % 1022,3 hPa - - - - 0,0 km/h (0 Bft) 14,29 %
_ Max-Zeit 16:35 16:35 12:36 07:28 23:50 00:00 13:55 00:00 14:50 19:10 00:40
Maximum _ 18,2 C 26,1 C 18,9 C 92 % 1027,7 hPa 0,0 l/m 5 min 0 min 882 W/m 25,7 km/h
N-NW (4 Bft)
100,00 %
Durchschnitt _ 11,7 C 13,1 C 7,9 C 71 % 1025,3 hPa #0,0 l/m #10:04 h #0 min. 457 W/m 9,5 km/h (2 Bft) 98,24 %
© 2022 W. Hausmann